<?xml version="1.0" encoding="UTF-8" standalone="no" ?>
<gpx xmlns="http://www.topografix.com/GPX/1/1" xmlns:xsi="http://www.w3.org/2001/XMLSchema-instance" xsi:schemaLocation="http://www.topografix.com/GPX/1/1 http://www.topografix.com/GPX/1/1/gpx.xsd" version="1.1" creator="VisuGPX - https://www.visugpx.com">
  <metadata>
    <name>RSPFY-Poteau-des-Bruyères</name>
    <desc><![CDATA[boucle de marche nordique au départ du poteau des Bruyères passant par le carrefour Sainte-Anne, le carrefour des Jumelles, le carrefour Elisabeth et le poteau de la Poterie.]]></desc>
  </metadata>
  <trk>
    <name><![CDATA[2022-01-11 08:52]]></name>
    <desc><![CDATA[<p>Heure de départ: 08:52 11 janv. 2022<br/>Heure d'arrivée: 11:51 11 janv. 2022<br/>Distance: 13,2 km (02:58)<br/>Temps déplacement: 02:22<br/>Vitesse moyenne: 4,44 km/h<br/>Vitesse moyenne mouv.: 5,56 km/h<br/>Vitesse Max.: 9,39 km/h<br/>Altitude minimale: 83 m<br/>Altitude maximale: 167 m<br/>Vitesse de montée: 363,6 m/h<br/>Vitesse de descente: -239,8 m/h<br/>Gain d'altitude: 414 m<br/>Perte d'altitude: -428 m<br/>Temps de montée: 01:08<br/>Temps de descente: 01:47<br/></p><hr align="center" width="480" style="height: 2px; width: 517px"/>]]></desc>
    <trkseg>
      <trkpt lat="48.6166" lon="1.92951">
        <ele>172.8</ele>
        <time>2022-01-11T07:52:45Z</time>
      </trkpt>
      <trkpt lat="48.61665" lon="1.92978">
        <ele>172</ele>
        <time>2022-01-11T08:04:16Z</time>
      </trkpt>
      <trkpt lat="48.61665" lon="1.93006">
        <ele>172</ele>
        <time>2022-01-11T08:04:37Z</time>
      </trkpt>
      <trkpt lat="48.61668" lon="1.93035">
        <ele>172</ele>
        <time>2022-01-11T08:04:56Z</time>
      </trkpt>
      <trkpt lat="48.6167" lon="1.93063">
        <ele>172</ele>
        <time>2022-01-11T08:05:09Z</time>
      </trkpt>
      <trkpt lat="48.61667" lon="1.9309">
        <ele>172</ele>
        <time>2022-01-11T08:05:24Z</time>
      </trkpt>
      <trkpt lat="48.61672" lon="1.93117">
        <ele>171.8</ele>
        <time>2022-01-11T08:05:37Z</time>
      </trkpt>
      <trkpt lat="48.61672" lon="1.93144">
        <ele>171</ele>
        <time>2022-01-11T08:05:48Z</time>
      </trkpt>
      <trkpt lat="48.61676" lon="1.93172">
        <ele>171</ele>
        <time>2022-01-11T08:05:58Z</time>
      </trkpt>
      <trkpt lat="48.61679" lon="1.93199">
        <ele>171</ele>
        <time>2022-01-11T08:06:10Z</time>
      </trkpt>
      <trkpt lat="48.61678" lon="1.93228">
        <ele>171</ele>
        <time>2022-01-11T08:06:24Z</time>
      </trkpt>
      <trkpt lat="48.61673" lon="1.93254">
        <ele>170.9</ele>
        <time>2022-01-11T08:06:38Z</time>
      </trkpt>
      <trkpt lat="48.61668" lon="1.93281">
        <ele>170</ele>
        <time>2022-01-11T08:06:50Z</time>
      </trkpt>
      <trkpt lat="48.61672" lon="1.9331">
        <ele>170</ele>
        <time>2022-01-11T08:07:03Z</time>
      </trkpt>
      <trkpt lat="48.61672" lon="1.93338">
        <ele>169.9</ele>
        <time>2022-01-11T08:07:14Z</time>
      </trkpt>
      <trkpt lat="48.61669" lon="1.93364">
        <ele>169.1</ele>
        <time>2022-01-11T08:07:27Z</time>
      </trkpt>
      <trkpt lat="48.61668" lon="1.93392">
        <ele>169.1</ele>
        <time>2022-01-11T08:07:39Z</time>
      </trkpt>
      <trkpt lat="48.61664" lon="1.93421">
        <ele>168.9</ele>
        <time>2022-01-11T08:07:51Z</time>
      </trkpt>
      <trkpt lat="48.61661" lon="1.93449">
        <ele>168.7</ele>
        <time>2022-01-11T08:08:02Z</time>
      </trkpt>
      <trkpt lat="48.61661" lon="1.93479">
        <ele>168</ele>
        <time>2022-01-11T08:08:16Z</time>
      </trkpt>
      <trkpt lat="48.61653" lon="1.93505">
        <ele>167.5</ele>
        <time>2022-01-11T08:08:28Z</time>
      </trkpt>
      <trkpt lat="48.61648" lon="1.93532">
        <ele>167.3</ele>
        <time>2022-01-11T08:08:40Z</time>
      </trkpt>
      <trkpt lat="48.61644" lon="1.93561">
        <ele>167.2</ele>
        <time>2022-01-11T08:08:52Z</time>
      </trkpt>
      <trkpt lat="48.61636" lon="1.93588">
        <ele>166.9</ele>
        <time>2022-01-11T08:09:05Z</time>
      </trkpt>
      <trkpt lat="48.61631" lon="1.93615">
        <ele>166.7</ele>
        <time>2022-01-11T08:09:18Z</time>
      </trkpt>
      <trkpt lat="48.61623" lon="1.93642">
        <ele>166.4</ele>
        <time>2022-01-11T08:09:31Z</time>
      </trkpt>
      <trkpt lat="48.61615" lon="1.93667">
        <ele>166.1</ele>
        <time>2022-01-11T08:09:42Z</time>
      </trkpt>
      <trkpt lat="48.61605" lon="1.9369">
        <ele>165.8</ele>
        <time>2022-01-11T08:09:53Z</time>
      </trkpt>
      <trkpt lat="48.61599" lon="1.93716">
        <ele>165.5</ele>
        <time>2022-01-11T08:10:04Z</time>
      </trkpt>
      <trkpt lat="48.61586" lon="1.93737">
        <ele>165.6</ele>
        <time>2022-01-11T08:10:18Z</time>
      </trkpt>
      <trkpt lat="48.61572" lon="1.93755">
        <ele>165.8</ele>
        <time>2022-01-11T08:10:30Z</time>
      </trkpt>
      <trkpt lat="48.61558" lon="1.93773">
        <ele>165.9</ele>
        <time>2022-01-11T08:10:43Z</time>
      </trkpt>
      <trkpt lat="48.61544" lon="1.93792">
        <ele>165.9</ele>
        <time>2022-01-11T08:10:56Z</time>
      </trkpt>
      <trkpt lat="48.61531" lon="1.93814">
        <ele>166.1</ele>
        <time>2022-01-11T08:11:10Z</time>
      </trkpt>
      <trkpt lat="48.6152" lon="1.93835">
        <ele>165.5</ele>
        <time>2022-01-11T08:11:21Z</time>
      </trkpt>
      <trkpt lat="48.61507" lon="1.93856">
        <ele>165.3</ele>
        <time>2022-01-11T08:11:34Z</time>
      </trkpt>
      <trkpt lat="48.61497" lon="1.9388">
        <ele>165.4</ele>
        <time>2022-01-11T08:11:48Z</time>
      </trkpt>
      <trkpt lat="48.61485" lon="1.93903">
        <ele>164.6</ele>
        <time>2022-01-11T08:11:58Z</time>
      </trkpt>
      <trkpt lat="48.61473" lon="1.93926">
        <ele>164.4</ele>
        <time>2022-01-11T08:12:09Z</time>
      </trkpt>
      <trkpt lat="48.61463" lon="1.9395">
        <ele>164.6</ele>
        <time>2022-01-11T08:12:20Z</time>
      </trkpt>
      <trkpt lat="48.61453" lon="1.93973">
        <ele>165.3</ele>
        <time>2022-01-11T08:12:30Z</time>
      </trkpt>
      <trkpt lat="48.61441" lon="1.93995">
        <ele>164.8</ele>
        <time>2022-01-11T08:12:44Z</time>
      </trkpt>
      <trkpt lat="48.61431" lon="1.94018">
        <ele>165.5</ele>
        <time>2022-01-11T08:12:56Z</time>
      </trkpt>
      <trkpt lat="48.61419" lon="1.9404">
        <ele>166</ele>
        <time>2022-01-11T08:13:09Z</time>
      </trkpt>
      <trkpt lat="48.61406" lon="1.94061">
        <ele>165.1</ele>
        <time>2022-01-11T08:13:22Z</time>
      </trkpt>
      <trkpt lat="48.61393" lon="1.94081">
        <ele>164.2</ele>
        <time>2022-01-11T08:13:35Z</time>
      </trkpt>
      <trkpt lat="48.61379" lon="1.94098">
        <ele>162.4</ele>
        <time>2022-01-11T08:13:48Z</time>
      </trkpt>
      <trkpt lat="48.6137" lon="1.94123">
        <ele>160.5</ele>
        <time>2022-01-11T08:14:00Z</time>
      </trkpt>
      <trkpt lat="48.61363" lon="1.94149">
        <ele>158.9</ele>
        <time>2022-01-11T08:14:12Z</time>
      </trkpt>
      <trkpt lat="48.61363" lon="1.94178">
        <ele>157.5</ele>
        <time>2022-01-11T08:14:25Z</time>
      </trkpt>
      <trkpt lat="48.61359" lon="1.94205">
        <ele>154.9</ele>
        <time>2022-01-11T08:14:38Z</time>
      </trkpt>
      <trkpt lat="48.61355" lon="1.94233">
        <ele>152.3</ele>
        <time>2022-01-11T08:14:51Z</time>
      </trkpt>
      <trkpt lat="48.61355" lon="1.94262">
        <ele>150.4</ele>
        <time>2022-01-11T08:15:05Z</time>
      </trkpt>
      <trkpt lat="48.61364" lon="1.94288">
        <ele>150</ele>
        <time>2022-01-11T08:15:19Z</time>
      </trkpt>
      <trkpt lat="48.61363" lon="1.94316">
        <ele>148.8</ele>
        <time>2022-01-11T08:15:28Z</time>
      </trkpt>
      <trkpt lat="48.61358" lon="1.94343">
        <ele>147.7</ele>
        <time>2022-01-11T08:15:39Z</time>
      </trkpt>
      <trkpt lat="48.61355" lon="1.94371">
        <ele>147</ele>
        <time>2022-01-11T08:15:53Z</time>
      </trkpt>
      <trkpt lat="48.61348" lon="1.94396">
        <ele>146</ele>
        <time>2022-01-11T08:16:06Z</time>
      </trkpt>
      <trkpt lat="48.61338" lon="1.9442">
        <ele>145.3</ele>
        <time>2022-01-11T08:16:18Z</time>
      </trkpt>
      <trkpt lat="48.61333" lon="1.94447">
        <ele>144</ele>
        <time>2022-01-11T08:16:30Z</time>
      </trkpt>
      <trkpt lat="48.61327" lon="1.94475">
        <ele>143.7</ele>
        <time>2022-01-11T08:16:41Z</time>
      </trkpt>
      <trkpt lat="48.61319" lon="1.94501">
        <ele>143</ele>
        <time>2022-01-11T08:16:55Z</time>
      </trkpt>
      <trkpt lat="48.61324" lon="1.94528">
        <ele>143.3</ele>
        <time>2022-01-11T08:17:55Z</time>
      </trkpt>
      <trkpt lat="48.61337" lon="1.94549">
        <ele>144.4</ele>
        <time>2022-01-11T08:18:11Z</time>
      </trkpt>
      <trkpt lat="48.6135" lon="1.94569">
        <ele>145.5</ele>
        <time>2022-01-11T08:18:25Z</time>
      </trkpt>
      <trkpt lat="48.61367" lon="1.94584">
        <ele>146.2</ele>
        <time>2022-01-11T08:18:38Z</time>
      </trkpt>
      <trkpt lat="48.61382" lon="1.946">
        <ele>146.2</ele>
        <time>2022-01-11T08:18:48Z</time>
      </trkpt>
      <trkpt lat="48.6139" lon="1.94627">
        <ele>146</ele>
        <time>2022-01-11T08:19:02Z</time>
      </trkpt>
      <trkpt lat="48.61386" lon="1.94654">
        <ele>145.3</ele>
        <time>2022-01-11T08:19:14Z</time>
      </trkpt>
      <trkpt lat="48.61378" lon="1.94678">
        <ele>144.4</ele>
        <time>2022-01-11T08:19:27Z</time>
      </trkpt>
      <trkpt lat="48.61367" lon="1.947">
        <ele>143.2</ele>
        <time>2022-01-11T08:19:40Z</time>
      </trkpt>
      <trkpt lat="48.6136" lon="1.94725">
        <ele>141.6</ele>
        <time>2022-01-11T08:19:54Z</time>
      </trkpt>
      <trkpt lat="48.61349" lon="1.94749">
        <ele>139.2</ele>
        <time>2022-01-11T08:20:03Z</time>
      </trkpt>
      <trkpt lat="48.61339" lon="1.94772">
        <ele>137</ele>
        <time>2022-01-11T08:20:15Z</time>
      </trkpt>
      <trkpt lat="48.61328" lon="1.94796">
        <ele>134.9</ele>
        <time>2022-01-11T08:20:27Z</time>
      </trkpt>
      <trkpt lat="48.61323" lon="1.94823">
        <ele>133.6</ele>
        <time>2022-01-11T08:20:39Z</time>
      </trkpt>
      <trkpt lat="48.61321" lon="1.94851">
        <ele>132.8</ele>
        <time>2022-01-11T08:20:55Z</time>
      </trkpt>
      <trkpt lat="48.61321" lon="1.9488">
        <ele>132.7</ele>
        <time>2022-01-11T08:21:08Z</time>
      </trkpt>
      <trkpt lat="48.6132" lon="1.94908">
        <ele>132.5</ele>
        <time>2022-01-11T08:21:19Z</time>
      </trkpt>
      <trkpt lat="48.61313" lon="1.94934">
        <ele>131.8</ele>
        <time>2022-01-11T08:21:33Z</time>
      </trkpt>
      <trkpt lat="48.61304" lon="1.94959">
        <ele>130.9</ele>
        <time>2022-01-11T08:21:47Z</time>
      </trkpt>
      <trkpt lat="48.61299" lon="1.94988">
        <ele>129.9</ele>
        <time>2022-01-11T08:22:01Z</time>
      </trkpt>
      <trkpt lat="48.61297" lon="1.95015">
        <ele>129.8</ele>
        <time>2022-01-11T08:22:12Z</time>
      </trkpt>
      <trkpt lat="48.61296" lon="1.95042">
        <ele>130</ele>
        <time>2022-01-11T08:22:24Z</time>
      </trkpt>
      <trkpt lat="48.61292" lon="1.9507">
        <ele>129.5</ele>
        <time>2022-01-11T08:22:34Z</time>
      </trkpt>
      <trkpt lat="48.6129" lon="1.95099">
        <ele>129</ele>
        <time>2022-01-11T08:22:47Z</time>
      </trkpt>
      <trkpt lat="48.61287" lon="1.95129">
        <ele>128.8</ele>
        <time>2022-01-11T08:22:58Z</time>
      </trkpt>
      <trkpt lat="48.61285" lon="1.95157">
        <ele>128.4</ele>
        <time>2022-01-11T08:23:10Z</time>
      </trkpt>
      <trkpt lat="48.61277" lon="1.95185">
        <ele>127</ele>
        <time>2022-01-11T08:23:21Z</time>
      </trkpt>
      <trkpt lat="48.61272" lon="1.95211">
        <ele>126.6</ele>
        <time>2022-01-11T08:23:31Z</time>
      </trkpt>
      <trkpt lat="48.61267" lon="1.95239">
        <ele>126</ele>
        <time>2022-01-11T08:23:41Z</time>
      </trkpt>
      <trkpt lat="48.61264" lon="1.95267">
        <ele>125.5</ele>
        <time>2022-01-11T08:23:52Z</time>
      </trkpt>
      <trkpt lat="48.61259" lon="1.95295">
        <ele>124.4</ele>
        <time>2022-01-11T08:24:05Z</time>
      </trkpt>
      <trkpt lat="48.61261" lon="1.95325">
        <ele>124.2</ele>
        <time>2022-01-11T08:24:17Z</time>
      </trkpt>
      <trkpt lat="48.61257" lon="1.95352">
        <ele>123.7</ele>
        <time>2022-01-11T08:24:29Z</time>
      </trkpt>
      <trkpt lat="48.61252" lon="1.95379">
        <ele>123.2</ele>
        <time>2022-01-11T08:24:42Z</time>
      </trkpt>
      <trkpt lat="48.61254" lon="1.95408">
        <ele>123.5</ele>
        <time>2022-01-11T08:24:55Z</time>
      </trkpt>
      <trkpt lat="48.61254" lon="1.95437">
        <ele>123.5</ele>
        <time>2022-01-11T08:25:05Z</time>
      </trkpt>
      <trkpt lat="48.61253" lon="1.95465">
        <ele>123.5</ele>
        <time>2022-01-11T08:25:18Z</time>
      </trkpt>
      <trkpt lat="48.61247" lon="1.95492">
        <ele>122.7</ele>
        <time>2022-01-11T08:25:34Z</time>
      </trkpt>
      <trkpt lat="48.61243" lon="1.95522">
        <ele>122.2</ele>
        <time>2022-01-11T08:25:46Z</time>
      </trkpt>
      <trkpt lat="48.61236" lon="1.95548">
        <ele>121.1</ele>
        <time>2022-01-11T08:25:57Z</time>
      </trkpt>
      <trkpt lat="48.61231" lon="1.95576">
        <ele>120.1</ele>
        <time>2022-01-11T08:26:09Z</time>
      </trkpt>
      <trkpt lat="48.61225" lon="1.95603">
        <ele>119.2</ele>
        <time>2022-01-11T08:26:21Z</time>
      </trkpt>
      <trkpt lat="48.6122" lon="1.95631">
        <ele>118.8</ele>
        <time>2022-01-11T08:26:30Z</time>
      </trkpt>
      <trkpt lat="48.61212" lon="1.95658">
        <ele>117.6</ele>
        <time>2022-01-11T08:26:42Z</time>
      </trkpt>
      <trkpt lat="48.61209" lon="1.95685">
        <ele>117.1</ele>
        <time>2022-01-11T08:26:53Z</time>
      </trkpt>
      <trkpt lat="48.61209" lon="1.95714">
        <ele>116.3</ele>
        <time>2022-01-11T08:27:05Z</time>
      </trkpt>
      <trkpt lat="48.61215" lon="1.9574">
        <ele>116.5</ele>
        <time>2022-01-11T08:29:09Z</time>
      </trkpt>
      <trkpt lat="48.61219" lon="1.95766">
        <ele>116.2</ele>
        <time>2022-01-11T08:29:30Z</time>
      </trkpt>
      <trkpt lat="48.61227" lon="1.95793">
        <ele>116.2</ele>
        <time>2022-01-11T08:29:45Z</time>
      </trkpt>
      <trkpt lat="48.61218" lon="1.95817">
        <ele>115.3</ele>
        <time>2022-01-11T08:29:54Z</time>
      </trkpt>
      <trkpt lat="48.61211" lon="1.95845">
        <ele>114</ele>
        <time>2022-01-11T08:30:05Z</time>
      </trkpt>
      <trkpt lat="48.61207" lon="1.95873">
        <ele>113.1</ele>
        <time>2022-01-11T08:30:16Z</time>
      </trkpt>
      <trkpt lat="48.61209" lon="1.95901">
        <ele>112.6</ele>
        <time>2022-01-11T08:30:28Z</time>
      </trkpt>
      <trkpt lat="48.6121" lon="1.95929">
        <ele>111.7</ele>
        <time>2022-01-11T08:30:39Z</time>
      </trkpt>
      <trkpt lat="48.61209" lon="1.95958">
        <ele>110.3</ele>
        <time>2022-01-11T08:30:51Z</time>
      </trkpt>
      <trkpt lat="48.61213" lon="1.95987">
        <ele>109.2</ele>
        <time>2022-01-11T08:31:03Z</time>
      </trkpt>
      <trkpt lat="48.61216" lon="1.96015">
        <ele>108.2</ele>
        <time>2022-01-11T08:31:17Z</time>
      </trkpt>
      <trkpt lat="48.61219" lon="1.96042">
        <ele>107.9</ele>
        <time>2022-01-11T08:31:29Z</time>
      </trkpt>
      <trkpt lat="48.61229" lon="1.96068">
        <ele>108.2</ele>
        <time>2022-01-11T08:31:39Z</time>
      </trkpt>
      <trkpt lat="48.61228" lon="1.96096">
        <ele>107.8</ele>
        <time>2022-01-11T08:31:50Z</time>
      </trkpt>
      <trkpt lat="48.61232" lon="1.96124">
        <ele>107.3</ele>
        <time>2022-01-11T08:32:02Z</time>
      </trkpt>
      <trkpt lat="48.6122" lon="1.96145">
        <ele>106.7</ele>
        <time>2022-01-11T08:32:14Z</time>
      </trkpt>
      <trkpt lat="48.61204" lon="1.96159">
        <ele>105.6</ele>
        <time>2022-01-11T08:32:26Z</time>
      </trkpt>
      <trkpt lat="48.61187" lon="1.96173">
        <ele>105</ele>
        <time>2022-01-11T08:32:35Z</time>
      </trkpt>
      <trkpt lat="48.61172" lon="1.96188">
        <ele>105</ele>
        <time>2022-01-11T08:32:47Z</time>
      </trkpt>
      <trkpt lat="48.61169" lon="1.9616">
        <ele>105</ele>
        <time>2022-01-11T08:33:47Z</time>
      </trkpt>
      <trkpt lat="48.61164" lon="1.96132">
        <ele>104.9</ele>
        <time>2022-01-11T08:34:00Z</time>
      </trkpt>
      <trkpt lat="48.61158" lon="1.96107">
        <ele>105.1</ele>
        <time>2022-01-11T08:34:12Z</time>
      </trkpt>
      <trkpt lat="48.6115" lon="1.96082">
        <ele>105.4</ele>
        <time>2022-01-11T08:34:23Z</time>
      </trkpt>
      <trkpt lat="48.61142" lon="1.96055">
        <ele>105.1</ele>
        <time>2022-01-11T08:34:37Z</time>
      </trkpt>
      <trkpt lat="48.61132" lon="1.96031">
        <ele>105.7</ele>
        <time>2022-01-11T08:34:47Z</time>
      </trkpt>
      <trkpt lat="48.61125" lon="1.96004">
        <ele>105.5</ele>
        <time>2022-01-11T08:34:59Z</time>
      </trkpt>
      <trkpt lat="48.61116" lon="1.9598">
        <ele>105.9</ele>
        <time>2022-01-11T08:35:11Z</time>
      </trkpt>
      <trkpt lat="48.61105" lon="1.95958">
        <ele>105.8</ele>
        <time>2022-01-11T08:35:26Z</time>
      </trkpt>
      <trkpt lat="48.61099" lon="1.95931">
        <ele>106</ele>
        <time>2022-01-11T08:35:39Z</time>
      </trkpt>
      <trkpt lat="48.61091" lon="1.95903">
        <ele>106.3</ele>
        <time>2022-01-11T08:35:51Z</time>
      </trkpt>
      <trkpt lat="48.61087" lon="1.95877">
        <ele>106.5</ele>
        <time>2022-01-11T08:36:06Z</time>
      </trkpt>
      <trkpt lat="48.61078" lon="1.95853">
        <ele>106.7</ele>
        <time>2022-01-11T08:36:17Z</time>
      </trkpt>
      <trkpt lat="48.6107" lon="1.95827">
        <ele>106.5</ele>
        <time>2022-01-11T08:37:53Z</time>
      </trkpt>
      <trkpt lat="48.6106" lon="1.95802">
        <ele>106.2</ele>
        <time>2022-01-11T08:38:05Z</time>
      </trkpt>
      <trkpt lat="48.61052" lon="1.95777">
        <ele>106</ele>
        <time>2022-01-11T08:38:19Z</time>
      </trkpt>
      <trkpt lat="48.61042" lon="1.95753">
        <ele>106</ele>
        <time>2022-01-11T08:38:33Z</time>
      </trkpt>
      <trkpt lat="48.61033" lon="1.95729">
        <ele>106.1</ele>
        <time>2022-01-11T08:38:44Z</time>
      </trkpt>
      <trkpt lat="48.61023" lon="1.95704">
        <ele>106.5</ele>
        <time>2022-01-11T08:38:57Z</time>
      </trkpt>
      <trkpt lat="48.61013" lon="1.95679">
        <ele>106.5</ele>
        <time>2022-01-11T08:39:10Z</time>
      </trkpt>
      <trkpt lat="48.61009" lon="1.95652">
        <ele>106.8</ele>
        <time>2022-01-11T08:39:24Z</time>
      </trkpt>
      <trkpt lat="48.61004" lon="1.95624">
        <ele>107.2</ele>
        <time>2022-01-11T08:39:35Z</time>
      </trkpt>
      <trkpt lat="48.60997" lon="1.95598">
        <ele>106.9</ele>
        <time>2022-01-11T08:39:46Z</time>
      </trkpt>
      <trkpt lat="48.60988" lon="1.95574">
        <ele>106.8</ele>
        <time>2022-01-11T08:39:57Z</time>
      </trkpt>
      <trkpt lat="48.60975" lon="1.95555">
        <ele>106.2</ele>
        <time>2022-01-11T08:40:39Z</time>
      </trkpt>
      <trkpt lat="48.60962" lon="1.95574">
        <ele>105.6</ele>
        <time>2022-01-11T08:40:58Z</time>
      </trkpt>
      <trkpt lat="48.60954" lon="1.956">
        <ele>105.7</ele>
        <time>2022-01-11T08:41:26Z</time>
      </trkpt>
      <trkpt lat="48.60944" lon="1.95624">
        <ele>106</ele>
        <time>2022-01-11T08:41:40Z</time>
      </trkpt>
      <trkpt lat="48.60933" lon="1.95646">
        <ele>105.9</ele>
        <time>2022-01-11T08:41:55Z</time>
      </trkpt>
      <trkpt lat="48.60922" lon="1.95669">
        <ele>105.2</ele>
        <time>2022-01-11T08:42:08Z</time>
      </trkpt>
      <trkpt lat="48.6091" lon="1.95692">
        <ele>105</ele>
        <time>2022-01-11T08:42:18Z</time>
      </trkpt>
      <trkpt lat="48.60898" lon="1.95714">
        <ele>105</ele>
        <time>2022-01-11T08:42:30Z</time>
      </trkpt>
      <trkpt lat="48.60889" lon="1.95737">
        <ele>105.5</ele>
        <time>2022-01-11T08:42:45Z</time>
      </trkpt>
      <trkpt lat="48.60876" lon="1.95756">
        <ele>106.1</ele>
        <time>2022-01-11T08:43:04Z</time>
      </trkpt>
      <trkpt lat="48.60867" lon="1.95781">
        <ele>106.4</ele>
        <time>2022-01-11T08:43:21Z</time>
      </trkpt>
      <trkpt lat="48.60855" lon="1.95802">
        <ele>107.6</ele>
        <time>2022-01-11T08:43:36Z</time>
      </trkpt>
      <trkpt lat="48.60843" lon="1.95827">
        <ele>108.7</ele>
        <time>2022-01-11T08:43:44Z</time>
      </trkpt>
      <trkpt lat="48.60832" lon="1.9585">
        <ele>109.6</ele>
        <time>2022-01-11T08:43:58Z</time>
      </trkpt>
      <trkpt lat="48.60822" lon="1.95875">
        <ele>110.2</ele>
        <time>2022-01-11T08:44:12Z</time>
      </trkpt>
      <trkpt lat="48.60811" lon="1.95898">
        <ele>109.7</ele>
        <time>2022-01-11T08:44:26Z</time>
      </trkpt>
      <trkpt lat="48.608" lon="1.95922">
        <ele>109.6</ele>
        <time>2022-01-11T08:44:40Z</time>
      </trkpt>
      <trkpt lat="48.60794" lon="1.95949">
        <ele>110.8</ele>
        <time>2022-01-11T08:44:53Z</time>
      </trkpt>
      <trkpt lat="48.60782" lon="1.95972">
        <ele>110.8</ele>
        <time>2022-01-11T08:45:03Z</time>
      </trkpt>
      <trkpt lat="48.60771" lon="1.95995">
        <ele>111.6</ele>
        <time>2022-01-11T08:45:20Z</time>
      </trkpt>
      <trkpt lat="48.60759" lon="1.96015">
        <ele>111.3</ele>
        <time>2022-01-11T08:45:31Z</time>
      </trkpt>
      <trkpt lat="48.60748" lon="1.96037">
        <ele>111.6</ele>
        <time>2022-01-11T08:46:21Z</time>
      </trkpt>
      <trkpt lat="48.60736" lon="1.9606">
        <ele>112.7</ele>
        <time>2022-01-11T08:46:40Z</time>
      </trkpt>
      <trkpt lat="48.60724" lon="1.96082">
        <ele>113.1</ele>
        <time>2022-01-11T08:46:55Z</time>
      </trkpt>
      <trkpt lat="48.60712" lon="1.96104">
        <ele>114.8</ele>
        <time>2022-01-11T08:47:07Z</time>
      </trkpt>
      <trkpt lat="48.60702" lon="1.96126">
        <ele>116.4</ele>
        <time>2022-01-11T08:47:19Z</time>
      </trkpt>
      <trkpt lat="48.60691" lon="1.9615">
        <ele>118.1</ele>
        <time>2022-01-11T08:47:31Z</time>
      </trkpt>
      <trkpt lat="48.60678" lon="1.96172">
        <ele>120.4</ele>
        <time>2022-01-11T08:47:44Z</time>
      </trkpt>
      <trkpt lat="48.60669" lon="1.96197">
        <ele>121.8</ele>
        <time>2022-01-11T08:47:57Z</time>
      </trkpt>
      <trkpt lat="48.6066" lon="1.96223">
        <ele>122.7</ele>
        <time>2022-01-11T08:48:11Z</time>
      </trkpt>
      <trkpt lat="48.60649" lon="1.96245">
        <ele>123.4</ele>
        <time>2022-01-11T08:48:25Z</time>
      </trkpt>
      <trkpt lat="48.60637" lon="1.96266">
        <ele>124.3</ele>
        <time>2022-01-11T08:48:40Z</time>
      </trkpt>
      <trkpt lat="48.60625" lon="1.96287">
        <ele>125.5</ele>
        <time>2022-01-11T08:48:54Z</time>
      </trkpt>
      <trkpt lat="48.60612" lon="1.96307">
        <ele>126.9</ele>
        <time>2022-01-11T08:49:23Z</time>
      </trkpt>
      <trkpt lat="48.606" lon="1.96329">
        <ele>127</ele>
        <time>2022-01-11T08:49:33Z</time>
      </trkpt>
      <trkpt lat="48.60592" lon="1.96355">
        <ele>127.4</ele>
        <time>2022-01-11T08:49:47Z</time>
      </trkpt>
      <trkpt lat="48.60579" lon="1.96377">
        <ele>129.1</ele>
        <time>2022-01-11T08:49:58Z</time>
      </trkpt>
      <trkpt lat="48.60571" lon="1.96403">
        <ele>131.3</ele>
        <time>2022-01-11T08:50:07Z</time>
      </trkpt>
      <trkpt lat="48.60562" lon="1.96427">
        <ele>133.3</ele>
        <time>2022-01-11T08:50:18Z</time>
      </trkpt>
      <trkpt lat="48.60553" lon="1.9645">
        <ele>135.4</ele>
        <time>2022-01-11T08:50:30Z</time>
      </trkpt>
      <trkpt lat="48.60539" lon="1.96471">
        <ele>136.8</ele>
        <time>2022-01-11T08:50:44Z</time>
      </trkpt>
      <trkpt lat="48.60528" lon="1.96493">
        <ele>137.3</ele>
        <time>2022-01-11T08:50:57Z</time>
      </trkpt>
      <trkpt lat="48.60517" lon="1.96515">
        <ele>137.7</ele>
        <time>2022-01-11T08:51:11Z</time>
      </trkpt>
      <trkpt lat="48.6051" lon="1.96541">
        <ele>137.5</ele>
        <time>2022-01-11T08:51:22Z</time>
      </trkpt>
      <trkpt lat="48.60498" lon="1.96562">
        <ele>138.2</ele>
        <time>2022-01-11T08:51:34Z</time>
      </trkpt>
      <trkpt lat="48.60487" lon="1.96585">
        <ele>138.8</ele>
        <time>2022-01-11T08:55:24Z</time>
      </trkpt>
      <trkpt lat="48.60486" lon="1.96613">
        <ele>137.5</ele>
        <time>2022-01-11T08:55:42Z</time>
      </trkpt>
      <trkpt lat="48.60472" lon="1.96631">
        <ele>138.3</ele>
        <time>2022-01-11T08:55:54Z</time>
      </trkpt>
      <trkpt lat="48.60461" lon="1.96653">
        <ele>139.1</ele>
        <time>2022-01-11T08:56:08Z</time>
      </trkpt>
      <trkpt lat="48.60449" lon="1.96676">
        <ele>140</ele>
        <time>2022-01-11T08:56:20Z</time>
      </trkpt>
      <trkpt lat="48.60438" lon="1.96701">
        <ele>141.3</ele>
        <time>2022-01-11T08:56:31Z</time>
      </trkpt>
      <trkpt lat="48.60428" lon="1.96724">
        <ele>142.2</ele>
        <time>2022-01-11T08:56:41Z</time>
      </trkpt>
      <trkpt lat="48.60417" lon="1.96748">
        <ele>142.9</ele>
        <time>2022-01-11T08:56:52Z</time>
      </trkpt>
      <trkpt lat="48.60408" lon="1.96773">
        <ele>142.7</ele>
        <time>2022-01-11T08:57:02Z</time>
      </trkpt>
      <trkpt lat="48.60399" lon="1.96798">
        <ele>142.1</ele>
        <time>2022-01-11T08:57:15Z</time>
      </trkpt>
      <trkpt lat="48.60387" lon="1.96818">
        <ele>141.3</ele>
        <time>2022-01-11T08:57:29Z</time>
      </trkpt>
      <trkpt lat="48.60375" lon="1.9684">
        <ele>139.1</ele>
        <time>2022-01-11T08:57:42Z</time>
      </trkpt>
      <trkpt lat="48.60365" lon="1.96864">
        <ele>136.5</ele>
        <time>2022-01-11T08:57:53Z</time>
      </trkpt>
      <trkpt lat="48.60354" lon="1.96888">
        <ele>133.5</ele>
        <time>2022-01-11T08:58:07Z</time>
      </trkpt>
      <trkpt lat="48.60341" lon="1.96908">
        <ele>129.3</ele>
        <time>2022-01-11T08:58:21Z</time>
      </trkpt>
      <trkpt lat="48.60332" lon="1.96932">
        <ele>126.3</ele>
        <time>2022-01-11T08:58:32Z</time>
      </trkpt>
      <trkpt lat="48.6032" lon="1.96953">
        <ele>123.8</ele>
        <time>2022-01-11T08:58:50Z</time>
      </trkpt>
      <trkpt lat="48.6031" lon="1.96976">
        <ele>122.1</ele>
        <time>2022-01-11T08:59:02Z</time>
      </trkpt>
      <trkpt lat="48.60302" lon="1.97003">
        <ele>120.9</ele>
        <time>2022-01-11T08:59:13Z</time>
      </trkpt>
      <trkpt lat="48.60303" lon="1.97031">
        <ele>120.1</ele>
        <time>2022-01-11T08:59:41Z</time>
      </trkpt>
      <trkpt lat="48.60311" lon="1.97056">
        <ele>120.2</ele>
        <time>2022-01-11T08:59:55Z</time>
      </trkpt>
      <trkpt lat="48.6032" lon="1.97081">
        <ele>120</ele>
        <time>2022-01-11T09:00:08Z</time>
      </trkpt>
      <trkpt lat="48.60325" lon="1.97109">
        <ele>119.3</ele>
        <time>2022-01-11T09:00:23Z</time>
      </trkpt>
      <trkpt lat="48.60341" lon="1.97124">
        <ele>119.3</ele>
        <time>2022-01-11T09:00:36Z</time>
      </trkpt>
      <trkpt lat="48.60352" lon="1.97148">
        <ele>118.8</ele>
        <time>2022-01-11T09:00:49Z</time>
      </trkpt>
      <trkpt lat="48.60358" lon="1.97174">
        <ele>118.1</ele>
        <time>2022-01-11T09:01:02Z</time>
      </trkpt>
      <trkpt lat="48.60372" lon="1.97191">
        <ele>118.1</ele>
        <time>2022-01-11T09:01:12Z</time>
      </trkpt>
      <trkpt lat="48.60384" lon="1.97214">
        <ele>117.3</ele>
        <time>2022-01-11T09:01:25Z</time>
      </trkpt>
      <trkpt lat="48.604" lon="1.97231">
        <ele>116.7</ele>
        <time>2022-01-11T09:01:38Z</time>
      </trkpt>
      <trkpt lat="48.60415" lon="1.97248">
        <ele>116.1</ele>
        <time>2022-01-11T09:01:50Z</time>
      </trkpt>
      <trkpt lat="48.60433" lon="1.97257">
        <ele>115.8</ele>
        <time>2022-01-11T09:02:01Z</time>
      </trkpt>
      <trkpt lat="48.60451" lon="1.97266">
        <ele>115.2</ele>
        <time>2022-01-11T09:02:10Z</time>
      </trkpt>
      <trkpt lat="48.6047" lon="1.97276">
        <ele>114.2</ele>
        <time>2022-01-11T09:02:22Z</time>
      </trkpt>
      <trkpt lat="48.60487" lon="1.97287">
        <ele>113.8</ele>
        <time>2022-01-11T09:02:34Z</time>
      </trkpt>
      <trkpt lat="48.60505" lon="1.97292">
        <ele>113.4</ele>
        <time>2022-01-11T09:02:47Z</time>
      </trkpt>
      <trkpt lat="48.6052" lon="1.97307">
        <ele>113</ele>
        <time>2022-01-11T09:03:00Z</time>
      </trkpt>
      <trkpt lat="48.60537" lon="1.97318">
        <ele>112.7</ele>
        <time>2022-01-11T09:03:15Z</time>
      </trkpt>
      <trkpt lat="48.60553" lon="1.97334">
        <ele>112.1</ele>
        <time>2022-01-11T09:03:28Z</time>
      </trkpt>
      <trkpt lat="48.60566" lon="1.97353">
        <ele>111.7</ele>
        <time>2022-01-11T09:03:43Z</time>
      </trkpt>
      <trkpt lat="48.60584" lon="1.97363">
        <ele>111</ele>
        <time>2022-01-11T09:03:56Z</time>
      </trkpt>
      <trkpt lat="48.60596" lon="1.97384">
        <ele>110.6</ele>
        <time>2022-01-11T09:04:09Z</time>
      </trkpt>
      <trkpt lat="48.6061" lon="1.97404">
        <ele>110.1</ele>
        <time>2022-01-11T09:04:21Z</time>
      </trkpt>
      <trkpt lat="48.60625" lon="1.9742">
        <ele>109.5</ele>
        <time>2022-01-11T09:04:34Z</time>
      </trkpt>
      <trkpt lat="48.60639" lon="1.97438">
        <ele>109</ele>
        <time>2022-01-11T09:04:45Z</time>
      </trkpt>
      <trkpt lat="48.60651" lon="1.97458">
        <ele>108.1</ele>
        <time>2022-01-11T09:04:58Z</time>
      </trkpt>
      <trkpt lat="48.60667" lon="1.97476">
        <ele>107</ele>
        <time>2022-01-11T09:05:13Z</time>
      </trkpt>
      <trkpt lat="48.60686" lon="1.97483">
        <ele>106.3</ele>
        <time>2022-01-11T09:05:24Z</time>
      </trkpt>
      <trkpt lat="48.60705" lon="1.97478">
        <ele>106</ele>
        <time>2022-01-11T09:05:34Z</time>
      </trkpt>
      <trkpt lat="48.60723" lon="1.97468">
        <ele>106</ele>
        <time>2022-01-11T09:05:45Z</time>
      </trkpt>
      <trkpt lat="48.60741" lon="1.97458">
        <ele>105.3</ele>
        <time>2022-01-11T09:05:56Z</time>
      </trkpt>
      <trkpt lat="48.60759" lon="1.97448">
        <ele>105</ele>
        <time>2022-01-11T09:06:09Z</time>
      </trkpt>
      <trkpt lat="48.60777" lon="1.97443">
        <ele>105</ele>
        <time>2022-01-11T09:06:27Z</time>
      </trkpt>
      <trkpt lat="48.60785" lon="1.97468">
        <ele>105</ele>
        <time>2022-01-11T09:07:24Z</time>
      </trkpt>
      <trkpt lat="48.60794" lon="1.97493">
        <ele>105</ele>
        <time>2022-01-11T09:07:42Z</time>
      </trkpt>
      <trkpt lat="48.60805" lon="1.97515">
        <ele>105</ele>
        <time>2022-01-11T09:07:55Z</time>
      </trkpt>
      <trkpt lat="48.60813" lon="1.97541">
        <ele>104.4</ele>
        <time>2022-01-11T09:08:09Z</time>
      </trkpt>
      <trkpt lat="48.60817" lon="1.97568">
        <ele>104</ele>
        <time>2022-01-11T09:08:22Z</time>
      </trkpt>
      <trkpt lat="48.60829" lon="1.97591">
        <ele>104</ele>
        <time>2022-01-11T09:08:34Z</time>
      </trkpt>
      <trkpt lat="48.60836" lon="1.97619">
        <ele>103.9</ele>
        <time>2022-01-11T09:08:49Z</time>
      </trkpt>
      <trkpt lat="48.60833" lon="1.97648">
        <ele>103.7</ele>
        <time>2022-01-11T09:08:57Z</time>
      </trkpt>
      <trkpt lat="48.60836" lon="1.97677">
        <ele>103</ele>
        <time>2022-01-11T09:09:08Z</time>
      </trkpt>
      <trkpt lat="48.60835" lon="1.97705">
        <ele>103</ele>
        <time>2022-01-11T09:09:24Z</time>
      </trkpt>
      <trkpt lat="48.60833" lon="1.97733">
        <ele>103</ele>
        <time>2022-01-11T09:09:40Z</time>
      </trkpt>
      <trkpt lat="48.6083" lon="1.9776">
        <ele>103</ele>
        <time>2022-01-11T09:09:56Z</time>
      </trkpt>
      <trkpt lat="48.60827" lon="1.97788">
        <ele>102.7</ele>
        <time>2022-01-11T09:10:10Z</time>
      </trkpt>
      <trkpt lat="48.60824" lon="1.97817">
        <ele>102.3</ele>
        <time>2022-01-11T09:10:27Z</time>
      </trkpt>
      <trkpt lat="48.60815" lon="1.97842">
        <ele>102.7</ele>
        <time>2022-01-11T09:10:38Z</time>
      </trkpt>
      <trkpt lat="48.60813" lon="1.9787">
        <ele>102.7</ele>
        <time>2022-01-11T09:10:51Z</time>
      </trkpt>
      <trkpt lat="48.60815" lon="1.97899">
        <ele>102.7</ele>
        <time>2022-01-11T09:11:04Z</time>
      </trkpt>
      <trkpt lat="48.60811" lon="1.97928">
        <ele>102.8</ele>
        <time>2022-01-11T09:11:14Z</time>
      </trkpt>
      <trkpt lat="48.60807" lon="1.97958">
        <ele>103</ele>
        <time>2022-01-11T09:11:21Z</time>
      </trkpt>
      <trkpt lat="48.60799" lon="1.97982">
        <ele>103.3</ele>
        <time>2022-01-11T09:11:33Z</time>
      </trkpt>
      <trkpt lat="48.6079" lon="1.98006">
        <ele>103.6</ele>
        <time>2022-01-11T09:11:48Z</time>
      </trkpt>
      <trkpt lat="48.60781" lon="1.98031">
        <ele>103.9</ele>
        <time>2022-01-11T09:12:01Z</time>
      </trkpt>
      <trkpt lat="48.60777" lon="1.98059">
        <ele>103.9</ele>
        <time>2022-01-11T09:12:11Z</time>
      </trkpt>
      <trkpt lat="48.6077" lon="1.98085">
        <ele>103.3</ele>
        <time>2022-01-11T09:12:24Z</time>
      </trkpt>
      <trkpt lat="48.60762" lon="1.9811">
        <ele>103.6</ele>
        <time>2022-01-11T09:12:38Z</time>
      </trkpt>
      <trkpt lat="48.60755" lon="1.98136">
        <ele>103.6</ele>
        <time>2022-01-11T09:12:51Z</time>
      </trkpt>
      <trkpt lat="48.60744" lon="1.98158">
        <ele>103.7</ele>
        <time>2022-01-11T09:13:04Z</time>
      </trkpt>
      <trkpt lat="48.60736" lon="1.98185">
        <ele>104</ele>
        <time>2022-01-11T09:13:16Z</time>
      </trkpt>
      <trkpt lat="48.6073" lon="1.98211">
        <ele>103.9</ele>
        <time>2022-01-11T09:13:28Z</time>
      </trkpt>
      <trkpt lat="48.60722" lon="1.98237">
        <ele>103.5</ele>
        <time>2022-01-11T09:13:39Z</time>
      </trkpt>
      <trkpt lat="48.60709" lon="1.98257">
        <ele>103.2</ele>
        <time>2022-01-11T09:13:50Z</time>
      </trkpt>
      <trkpt lat="48.60702" lon="1.98283">
        <ele>102.5</ele>
        <time>2022-01-11T09:14:08Z</time>
      </trkpt>
      <trkpt lat="48.60683" lon="1.98293">
        <ele>102.4</ele>
        <time>2022-01-11T09:18:24Z</time>
      </trkpt>
      <trkpt lat="48.60665" lon="1.98301">
        <ele>102.2</ele>
        <time>2022-01-11T09:18:38Z</time>
      </trkpt>
      <trkpt lat="48.60647" lon="1.98309">
        <ele>102</ele>
        <time>2022-01-11T09:18:49Z</time>
      </trkpt>
      <trkpt lat="48.6063" lon="1.98315">
        <ele>102.2</ele>
        <time>2022-01-11T09:19:02Z</time>
      </trkpt>
      <trkpt lat="48.60611" lon="1.98323">
        <ele>102.4</ele>
        <time>2022-01-11T09:19:14Z</time>
      </trkpt>
      <trkpt lat="48.60595" lon="1.98336">
        <ele>102.6</ele>
        <time>2022-01-11T09:19:26Z</time>
      </trkpt>
      <trkpt lat="48.60576" lon="1.98341">
        <ele>102.9</ele>
        <time>2022-01-11T09:19:37Z</time>
      </trkpt>
      <trkpt lat="48.60558" lon="1.98349">
        <ele>102.5</ele>
        <time>2022-01-11T09:19:49Z</time>
      </trkpt>
      <trkpt lat="48.6054" lon="1.98358">
        <ele>102.1</ele>
        <time>2022-01-11T09:20:00Z</time>
      </trkpt>
      <trkpt lat="48.60522" lon="1.98365">
        <ele>101.7</ele>
        <time>2022-01-11T09:20:12Z</time>
      </trkpt>
      <trkpt lat="48.60504" lon="1.98365">
        <ele>101</ele>
        <time>2022-01-11T09:20:26Z</time>
      </trkpt>
      <trkpt lat="48.60486" lon="1.98369">
        <ele>100.4</ele>
        <time>2022-01-11T09:20:39Z</time>
      </trkpt>
      <trkpt lat="48.60468" lon="1.98365">
        <ele>100</ele>
        <time>2022-01-11T09:21:01Z</time>
      </trkpt>
      <trkpt lat="48.60449" lon="1.98363">
        <ele>100</ele>
        <time>2022-01-11T09:21:15Z</time>
      </trkpt>
      <trkpt lat="48.60431" lon="1.98367">
        <ele>100.5</ele>
        <time>2022-01-11T09:21:29Z</time>
      </trkpt>
      <trkpt lat="48.60416" lon="1.98382">
        <ele>101.1</ele>
        <time>2022-01-11T09:21:48Z</time>
      </trkpt>
      <trkpt lat="48.60398" lon="1.98392">
        <ele>101.6</ele>
        <time>2022-01-11T09:22:02Z</time>
      </trkpt>
      <trkpt lat="48.60381" lon="1.98405">
        <ele>102.6</ele>
        <time>2022-01-11T09:22:15Z</time>
      </trkpt>
      <trkpt lat="48.60363" lon="1.98415">
        <ele>103.8</ele>
        <time>2022-01-11T09:22:28Z</time>
      </trkpt>
      <trkpt lat="48.60346" lon="1.98425">
        <ele>105.1</ele>
        <time>2022-01-11T09:22:42Z</time>
      </trkpt>
      <trkpt lat="48.60332" lon="1.98443">
        <ele>106</ele>
        <time>2022-01-11T09:22:55Z</time>
      </trkpt>
      <trkpt lat="48.60316" lon="1.98457">
        <ele>106.2</ele>
        <time>2022-01-11T09:23:11Z</time>
      </trkpt>
      <trkpt lat="48.60302" lon="1.98476">
        <ele>105.9</ele>
        <time>2022-01-11T09:23:23Z</time>
      </trkpt>
      <trkpt lat="48.60292" lon="1.98499">
        <ele>105.1</ele>
        <time>2022-01-11T09:23:34Z</time>
      </trkpt>
      <trkpt lat="48.60281" lon="1.98521">
        <ele>104.3</ele>
        <time>2022-01-11T09:23:45Z</time>
      </trkpt>
      <trkpt lat="48.60264" lon="1.98536">
        <ele>104.3</ele>
        <time>2022-01-11T09:23:59Z</time>
      </trkpt>
      <trkpt lat="48.60249" lon="1.98552">
        <ele>104.2</ele>
        <time>2022-01-11T09:24:13Z</time>
      </trkpt>
      <trkpt lat="48.60235" lon="1.98573">
        <ele>104.5</ele>
        <time>2022-01-11T09:24:24Z</time>
      </trkpt>
      <trkpt lat="48.60221" lon="1.98591">
        <ele>105</ele>
        <time>2022-01-11T09:24:35Z</time>
      </trkpt>
      <trkpt lat="48.60206" lon="1.98607">
        <ele>106.1</ele>
        <time>2022-01-11T09:24:48Z</time>
      </trkpt>
      <trkpt lat="48.60191" lon="1.98622">
        <ele>107.1</ele>
        <time>2022-01-11T09:25:01Z</time>
      </trkpt>
      <trkpt lat="48.60173" lon="1.98632">
        <ele>107.8</ele>
        <time>2022-01-11T09:25:16Z</time>
      </trkpt>
      <trkpt lat="48.60157" lon="1.98647">
        <ele>108.4</ele>
        <time>2022-01-11T09:25:29Z</time>
      </trkpt>
      <trkpt lat="48.60141" lon="1.98662">
        <ele>108.9</ele>
        <time>2022-01-11T09:25:42Z</time>
      </trkpt>
      <trkpt lat="48.60127" lon="1.98682">
        <ele>108.9</ele>
        <time>2022-01-11T09:25:54Z</time>
      </trkpt>
      <trkpt lat="48.60113" lon="1.987">
        <ele>108.7</ele>
        <time>2022-01-11T09:26:16Z</time>
      </trkpt>
      <trkpt lat="48.60096" lon="1.9871">
        <ele>108.4</ele>
        <time>2022-01-11T09:26:33Z</time>
      </trkpt>
      <trkpt lat="48.60078" lon="1.98721">
        <ele>107.8</ele>
        <time>2022-01-11T09:26:47Z</time>
      </trkpt>
      <trkpt lat="48.60061" lon="1.98735">
        <ele>107.1</ele>
        <time>2022-01-11T09:27:00Z</time>
      </trkpt>
      <trkpt lat="48.60042" lon="1.98737">
        <ele>106.7</ele>
        <time>2022-01-11T09:27:14Z</time>
      </trkpt>
      <trkpt lat="48.60023" lon="1.98745">
        <ele>106</ele>
        <time>2022-01-11T09:27:26Z</time>
      </trkpt>
      <trkpt lat="48.60004" lon="1.98747">
        <ele>105.3</ele>
        <time>2022-01-11T09:27:38Z</time>
      </trkpt>
      <trkpt lat="48.59986" lon="1.98749">
        <ele>105.5</ele>
        <time>2022-01-11T09:27:51Z</time>
      </trkpt>
      <trkpt lat="48.59968" lon="1.98758">
        <ele>105.8</ele>
        <time>2022-01-11T09:28:05Z</time>
      </trkpt>
      <trkpt lat="48.5995" lon="1.98764">
        <ele>105.9</ele>
        <time>2022-01-11T09:28:17Z</time>
      </trkpt>
      <trkpt lat="48.59931" lon="1.98765">
        <ele>106.7</ele>
        <time>2022-01-11T09:28:29Z</time>
      </trkpt>
      <trkpt lat="48.59913" lon="1.98769">
        <ele>107.7</ele>
        <time>2022-01-11T09:28:42Z</time>
      </trkpt>
      <trkpt lat="48.59895" lon="1.98771">
        <ele>109.6</ele>
        <time>2022-01-11T09:28:56Z</time>
      </trkpt>
      <trkpt lat="48.59877" lon="1.98781">
        <ele>111.1</ele>
        <time>2022-01-11T09:29:08Z</time>
      </trkpt>
      <trkpt lat="48.5986" lon="1.98789">
        <ele>112.3</ele>
        <time>2022-01-11T09:29:21Z</time>
      </trkpt>
      <trkpt lat="48.59841" lon="1.98791">
        <ele>113.2</ele>
        <time>2022-01-11T09:29:34Z</time>
      </trkpt>
      <trkpt lat="48.59821" lon="1.98793">
        <ele>113.6</ele>
        <time>2022-01-11T09:29:47Z</time>
      </trkpt>
      <trkpt lat="48.59803" lon="1.98794">
        <ele>113.9</ele>
        <time>2022-01-11T09:29:59Z</time>
      </trkpt>
      <trkpt lat="48.59785" lon="1.98797">
        <ele>114.4</ele>
        <time>2022-01-11T09:30:11Z</time>
      </trkpt>
      <trkpt lat="48.59767" lon="1.98795">
        <ele>115</ele>
        <time>2022-01-11T09:30:22Z</time>
      </trkpt>
      <trkpt lat="48.59748" lon="1.98797">
        <ele>115.4</ele>
        <time>2022-01-11T09:30:33Z</time>
      </trkpt>
      <trkpt lat="48.59729" lon="1.98796">
        <ele>116.1</ele>
        <time>2022-01-11T09:30:47Z</time>
      </trkpt>
      <trkpt lat="48.59711" lon="1.98794">
        <ele>117.1</ele>
        <time>2022-01-11T09:31:00Z</time>
      </trkpt>
      <trkpt lat="48.59692" lon="1.98794">
        <ele>118.1</ele>
        <time>2022-01-11T09:31:12Z</time>
      </trkpt>
      <trkpt lat="48.59674" lon="1.98792">
        <ele>119.1</ele>
        <time>2022-01-11T09:31:25Z</time>
      </trkpt>
      <trkpt lat="48.59656" lon="1.98796">
        <ele>120.4</ele>
        <time>2022-01-11T09:31:37Z</time>
      </trkpt>
      <trkpt lat="48.59638" lon="1.98795">
        <ele>121.7</ele>
        <time>2022-01-11T09:31:51Z</time>
      </trkpt>
      <trkpt lat="48.59619" lon="1.98793">
        <ele>123</ele>
        <time>2022-01-11T09:32:04Z</time>
      </trkpt>
      <trkpt lat="48.596" lon="1.98798">
        <ele>124</ele>
        <time>2022-01-11T09:32:15Z</time>
      </trkpt>
      <trkpt lat="48.59581" lon="1.988">
        <ele>124.6</ele>
        <time>2022-01-11T09:32:43Z</time>
      </trkpt>
      <trkpt lat="48.59563" lon="1.98802">
        <ele>124.1</ele>
        <time>2022-01-11T09:32:57Z</time>
      </trkpt>
      <trkpt lat="48.59567" lon="1.98775">
        <ele>123</ele>
        <time>2022-01-11T09:35:49Z</time>
      </trkpt>
      <trkpt lat="48.59584" lon="1.98767">
        <ele>123</ele>
        <time>2022-01-11T09:36:00Z</time>
      </trkpt>
      <trkpt lat="48.596" lon="1.98751">
        <ele>122.4</ele>
        <time>2022-01-11T09:36:11Z</time>
      </trkpt>
      <trkpt lat="48.59614" lon="1.98734">
        <ele>122.5</ele>
        <time>2022-01-11T09:36:25Z</time>
      </trkpt>
      <trkpt lat="48.59628" lon="1.98716">
        <ele>123.3</ele>
        <time>2022-01-11T09:36:37Z</time>
      </trkpt>
      <trkpt lat="48.59643" lon="1.98697">
        <ele>123.9</ele>
        <time>2022-01-11T09:36:50Z</time>
      </trkpt>
      <trkpt lat="48.59661" lon="1.987">
        <ele>123.6</ele>
        <time>2022-01-11T09:37:07Z</time>
      </trkpt>
      <trkpt lat="48.59679" lon="1.9869">
        <ele>125</ele>
        <time>2022-01-11T09:37:20Z</time>
      </trkpt>
      <trkpt lat="48.59691" lon="1.98667">
        <ele>127.9</ele>
        <time>2022-01-11T09:37:31Z</time>
      </trkpt>
      <trkpt lat="48.597" lon="1.98643">
        <ele>132.4</ele>
        <time>2022-01-11T09:37:40Z</time>
      </trkpt>
      <trkpt lat="48.59703" lon="1.98615">
        <ele>137</ele>
        <time>2022-01-11T09:37:51Z</time>
      </trkpt>
      <trkpt lat="48.59698" lon="1.98589">
        <ele>140.5</ele>
        <time>2022-01-11T09:38:03Z</time>
      </trkpt>
      <trkpt lat="48.59697" lon="1.98561">
        <ele>143.5</ele>
        <time>2022-01-11T09:38:19Z</time>
      </trkpt>
      <trkpt lat="48.59695" lon="1.98534">
        <ele>145.6</ele>
        <time>2022-01-11T09:38:48Z</time>
      </trkpt>
      <trkpt lat="48.59697" lon="1.98505">
        <ele>146.7</ele>
        <time>2022-01-11T09:39:14Z</time>
      </trkpt>
      <trkpt lat="48.59697" lon="1.98478">
        <ele>146.9</ele>
        <time>2022-01-11T09:39:35Z</time>
      </trkpt>
      <trkpt lat="48.59697" lon="1.9845">
        <ele>146.8</ele>
        <time>2022-01-11T09:39:54Z</time>
      </trkpt>
      <trkpt lat="48.59697" lon="1.98421">
        <ele>145.8</ele>
        <time>2022-01-11T09:40:10Z</time>
      </trkpt>
      <trkpt lat="48.59689" lon="1.98396">
        <ele>145</ele>
        <time>2022-01-11T09:40:21Z</time>
      </trkpt>
      <trkpt lat="48.59678" lon="1.98373">
        <ele>144.4</ele>
        <time>2022-01-11T09:40:33Z</time>
      </trkpt>
      <trkpt lat="48.59665" lon="1.98352">
        <ele>144.5</ele>
        <time>2022-01-11T09:40:48Z</time>
      </trkpt>
      <trkpt lat="48.59657" lon="1.98327">
        <ele>143.8</ele>
        <time>2022-01-11T09:41:03Z</time>
      </trkpt>
      <trkpt lat="48.59648" lon="1.98302">
        <ele>144.3</ele>
        <time>2022-01-11T09:41:17Z</time>
      </trkpt>
      <trkpt lat="48.59636" lon="1.9828">
        <ele>145.3</ele>
        <time>2022-01-11T09:41:31Z</time>
      </trkpt>
      <trkpt lat="48.59622" lon="1.9826">
        <ele>147.4</ele>
        <time>2022-01-11T09:41:47Z</time>
      </trkpt>
      <trkpt lat="48.59611" lon="1.98237">
        <ele>149.5</ele>
        <time>2022-01-11T09:42:01Z</time>
      </trkpt>
      <trkpt lat="48.59597" lon="1.98218">
        <ele>150.7</ele>
        <time>2022-01-11T09:42:16Z</time>
      </trkpt>
      <trkpt lat="48.59583" lon="1.982">
        <ele>151.8</ele>
        <time>2022-01-11T09:42:30Z</time>
      </trkpt>
      <trkpt lat="48.59568" lon="1.98181">
        <ele>152.5</ele>
        <time>2022-01-11T09:42:43Z</time>
      </trkpt>
      <trkpt lat="48.59556" lon="1.98158">
        <ele>153.3</ele>
        <time>2022-01-11T09:42:57Z</time>
      </trkpt>
      <trkpt lat="48.5955" lon="1.98131">
        <ele>154.1</ele>
        <time>2022-01-11T09:43:14Z</time>
      </trkpt>
      <trkpt lat="48.5954" lon="1.98107">
        <ele>155.2</ele>
        <time>2022-01-11T09:43:30Z</time>
      </trkpt>
      <trkpt lat="48.59534" lon="1.9808">
        <ele>156.8</ele>
        <time>2022-01-11T09:43:46Z</time>
      </trkpt>
      <trkpt lat="48.59529" lon="1.98052">
        <ele>156.9</ele>
        <time>2022-01-11T09:44:06Z</time>
      </trkpt>
      <trkpt lat="48.59529" lon="1.98024">
        <ele>157.1</ele>
        <time>2022-01-11T09:44:23Z</time>
      </trkpt>
      <trkpt lat="48.59521" lon="1.97998">
        <ele>158</ele>
        <time>2022-01-11T09:45:58Z</time>
      </trkpt>
      <trkpt lat="48.59515" lon="1.97972">
        <ele>158.4</ele>
        <time>2022-01-11T09:46:14Z</time>
      </trkpt>
      <trkpt lat="48.59508" lon="1.97945">
        <ele>158</ele>
        <time>2022-01-11T09:46:27Z</time>
      </trkpt>
      <trkpt lat="48.59499" lon="1.9792">
        <ele>158</ele>
        <time>2022-01-11T09:46:39Z</time>
      </trkpt>
      <trkpt lat="48.59492" lon="1.97894">
        <ele>158.3</ele>
        <time>2022-01-11T09:46:52Z</time>
      </trkpt>
      <trkpt lat="48.59483" lon="1.97868">
        <ele>158.2</ele>
        <time>2022-01-11T09:47:03Z</time>
      </trkpt>
      <trkpt lat="48.59475" lon="1.97842">
        <ele>157.9</ele>
        <time>2022-01-11T09:47:16Z</time>
      </trkpt>
      <trkpt lat="48.59465" lon="1.97816">
        <ele>158.1</ele>
        <time>2022-01-11T09:47:27Z</time>
      </trkpt>
      <trkpt lat="48.59457" lon="1.97791">
        <ele>157.5</ele>
        <time>2022-01-11T09:47:39Z</time>
      </trkpt>
      <trkpt lat="48.59448" lon="1.97765">
        <ele>156.5</ele>
        <time>2022-01-11T09:47:53Z</time>
      </trkpt>
      <trkpt lat="48.59442" lon="1.9774">
        <ele>155.4</ele>
        <time>2022-01-11T09:48:04Z</time>
      </trkpt>
      <trkpt lat="48.59434" lon="1.97714">
        <ele>154.2</ele>
        <time>2022-01-11T09:48:17Z</time>
      </trkpt>
      <trkpt lat="48.59433" lon="1.97686">
        <ele>152.1</ele>
        <time>2022-01-11T09:48:32Z</time>
      </trkpt>
      <trkpt lat="48.59436" lon="1.97659">
        <ele>149.3</ele>
        <time>2022-01-11T09:48:46Z</time>
      </trkpt>
      <trkpt lat="48.59437" lon="1.97629">
        <ele>147.4</ele>
        <time>2022-01-11T09:48:59Z</time>
      </trkpt>
      <trkpt lat="48.59442" lon="1.97602">
        <ele>145.8</ele>
        <time>2022-01-11T09:49:11Z</time>
      </trkpt>
      <trkpt lat="48.59451" lon="1.97577">
        <ele>144.3</ele>
        <time>2022-01-11T09:49:22Z</time>
      </trkpt>
      <trkpt lat="48.5946" lon="1.97552">
        <ele>142.8</ele>
        <time>2022-01-11T09:49:34Z</time>
      </trkpt>
      <trkpt lat="48.5947" lon="1.9753">
        <ele>141.2</ele>
        <time>2022-01-11T09:49:46Z</time>
      </trkpt>
      <trkpt lat="48.59474" lon="1.97502">
        <ele>140.9</ele>
        <time>2022-01-11T09:50:00Z</time>
      </trkpt>
      <trkpt lat="48.5947" lon="1.97475">
        <ele>140</ele>
        <time>2022-01-11T09:50:13Z</time>
      </trkpt>
      <trkpt lat="48.59473" lon="1.97447">
        <ele>138.2</ele>
        <time>2022-01-11T09:50:25Z</time>
      </trkpt>
      <trkpt lat="48.59478" lon="1.97421">
        <ele>138</ele>
        <time>2022-01-11T09:50:41Z</time>
      </trkpt>
      <trkpt lat="48.59477" lon="1.97392">
        <ele>138.2</ele>
        <time>2022-01-11T09:51:24Z</time>
      </trkpt>
      <trkpt lat="48.59472" lon="1.97363">
        <ele>139.9</ele>
        <time>2022-01-11T09:51:33Z</time>
      </trkpt>
      <trkpt lat="48.59466" lon="1.97334">
        <ele>142.5</ele>
        <time>2022-01-11T09:51:41Z</time>
      </trkpt>
      <trkpt lat="48.59461" lon="1.97308">
        <ele>145.8</ele>
        <time>2022-01-11T09:51:50Z</time>
      </trkpt>
      <trkpt lat="48.59449" lon="1.97285">
        <ele>148.8</ele>
        <time>2022-01-11T09:52:00Z</time>
      </trkpt>
      <trkpt lat="48.59436" lon="1.97263">
        <ele>151.5</ele>
        <time>2022-01-11T09:52:10Z</time>
      </trkpt>
      <trkpt lat="48.59424" lon="1.97241">
        <ele>153.5</ele>
        <time>2022-01-11T09:52:23Z</time>
      </trkpt>
      <trkpt lat="48.59431" lon="1.97215">
        <ele>155.9</ele>
        <time>2022-01-11T09:52:49Z</time>
      </trkpt>
      <trkpt lat="48.59441" lon="1.97191">
        <ele>157.8</ele>
        <time>2022-01-11T09:53:05Z</time>
      </trkpt>
      <trkpt lat="48.5944" lon="1.97164">
        <ele>157.9</ele>
        <time>2022-01-11T09:53:21Z</time>
      </trkpt>
      <trkpt lat="48.59434" lon="1.97137">
        <ele>158.6</ele>
        <time>2022-01-11T09:53:36Z</time>
      </trkpt>
      <trkpt lat="48.59436" lon="1.97108">
        <ele>158</ele>
        <time>2022-01-11T09:53:51Z</time>
      </trkpt>
      <trkpt lat="48.59433" lon="1.97081">
        <ele>157.9</ele>
        <time>2022-01-11T09:54:06Z</time>
      </trkpt>
      <trkpt lat="48.59426" lon="1.97054">
        <ele>157.6</ele>
        <time>2022-01-11T09:54:21Z</time>
      </trkpt>
      <trkpt lat="48.59421" lon="1.97028">
        <ele>156.8</ele>
        <time>2022-01-11T09:54:35Z</time>
      </trkpt>
      <trkpt lat="48.59424" lon="1.97">
        <ele>156.5</ele>
        <time>2022-01-11T09:54:50Z</time>
      </trkpt>
      <trkpt lat="48.59427" lon="1.96972">
        <ele>156.2</ele>
        <time>2022-01-11T09:55:05Z</time>
      </trkpt>
      <trkpt lat="48.59415" lon="1.96953">
        <ele>156.8</ele>
        <time>2022-01-11T09:55:21Z</time>
      </trkpt>
      <trkpt lat="48.59408" lon="1.96927">
        <ele>155.9</ele>
        <time>2022-01-11T09:55:36Z</time>
      </trkpt>
      <trkpt lat="48.59404" lon="1.96899">
        <ele>155.5</ele>
        <time>2022-01-11T09:55:50Z</time>
      </trkpt>
      <trkpt lat="48.59412" lon="1.96875">
        <ele>155.7</ele>
        <time>2022-01-11T09:59:19Z</time>
      </trkpt>
      <trkpt lat="48.59426" lon="1.96857">
        <ele>154.8</ele>
        <time>2022-01-11T09:59:31Z</time>
      </trkpt>
      <trkpt lat="48.59444" lon="1.9685">
        <ele>153</ele>
        <time>2022-01-11T09:59:43Z</time>
      </trkpt>
      <trkpt lat="48.59445" lon="1.96822">
        <ele>152.1</ele>
        <time>2022-01-11T09:59:56Z</time>
      </trkpt>
      <trkpt lat="48.59436" lon="1.96797">
        <ele>150.6</ele>
        <time>2022-01-11T10:00:08Z</time>
      </trkpt>
      <trkpt lat="48.59428" lon="1.96773">
        <ele>148.7</ele>
        <time>2022-01-11T10:00:19Z</time>
      </trkpt>
      <trkpt lat="48.59417" lon="1.96751">
        <ele>147.1</ele>
        <time>2022-01-11T10:00:30Z</time>
      </trkpt>
      <trkpt lat="48.59419" lon="1.96722">
        <ele>145.1</ele>
        <time>2022-01-11T10:00:45Z</time>
      </trkpt>
      <trkpt lat="48.59413" lon="1.96696">
        <ele>143.8</ele>
        <time>2022-01-11T10:00:57Z</time>
      </trkpt>
      <trkpt lat="48.59415" lon="1.96668">
        <ele>142.9</ele>
        <time>2022-01-11T10:01:11Z</time>
      </trkpt>
      <trkpt lat="48.59427" lon="1.96646">
        <ele>142.7</ele>
        <time>2022-01-11T10:01:23Z</time>
      </trkpt>
      <trkpt lat="48.59435" lon="1.96621">
        <ele>142.5</ele>
        <time>2022-01-11T10:01:36Z</time>
      </trkpt>
      <trkpt lat="48.59445" lon="1.96597">
        <ele>142.5</ele>
        <time>2022-01-11T10:01:48Z</time>
      </trkpt>
      <trkpt lat="48.59456" lon="1.96573">
        <ele>142.4</ele>
        <time>2022-01-11T10:02:01Z</time>
      </trkpt>
      <trkpt lat="48.59467" lon="1.96549">
        <ele>142.6</ele>
        <time>2022-01-11T10:02:14Z</time>
      </trkpt>
      <trkpt lat="48.59478" lon="1.96525">
        <ele>143.8</ele>
        <time>2022-01-11T10:02:28Z</time>
      </trkpt>
      <trkpt lat="48.59489" lon="1.96502">
        <ele>145.9</ele>
        <time>2022-01-11T10:02:43Z</time>
      </trkpt>
      <trkpt lat="48.595" lon="1.96478">
        <ele>148</ele>
        <time>2022-01-11T10:02:57Z</time>
      </trkpt>
      <trkpt lat="48.59511" lon="1.96457">
        <ele>149.2</ele>
        <time>2022-01-11T10:03:11Z</time>
      </trkpt>
      <trkpt lat="48.59521" lon="1.96433">
        <ele>150.3</ele>
        <time>2022-01-11T10:03:25Z</time>
      </trkpt>
      <trkpt lat="48.59531" lon="1.96409">
        <ele>151.5</ele>
        <time>2022-01-11T10:03:40Z</time>
      </trkpt>
      <trkpt lat="48.59542" lon="1.96385">
        <ele>152.9</ele>
        <time>2022-01-11T10:03:54Z</time>
      </trkpt>
      <trkpt lat="48.59554" lon="1.96362">
        <ele>154.7</ele>
        <time>2022-01-11T10:04:08Z</time>
      </trkpt>
      <trkpt lat="48.59565" lon="1.96337">
        <ele>154.6</ele>
        <time>2022-01-11T10:04:20Z</time>
      </trkpt>
      <trkpt lat="48.59576" lon="1.96313">
        <ele>154.5</ele>
        <time>2022-01-11T10:04:32Z</time>
      </trkpt>
      <trkpt lat="48.59587" lon="1.96291">
        <ele>153.9</ele>
        <time>2022-01-11T10:04:44Z</time>
      </trkpt>
      <trkpt lat="48.59598" lon="1.96269">
        <ele>152.3</ele>
        <time>2022-01-11T10:04:55Z</time>
      </trkpt>
      <trkpt lat="48.59611" lon="1.9625">
        <ele>151</ele>
        <time>2022-01-11T10:05:07Z</time>
      </trkpt>
      <trkpt lat="48.59618" lon="1.96225">
        <ele>147.6</ele>
        <time>2022-01-11T10:05:20Z</time>
      </trkpt>
      <trkpt lat="48.59629" lon="1.96203">
        <ele>144.9</ele>
        <time>2022-01-11T10:05:32Z</time>
      </trkpt>
      <trkpt lat="48.59644" lon="1.96184">
        <ele>142.5</ele>
        <time>2022-01-11T10:05:47Z</time>
      </trkpt>
      <trkpt lat="48.59656" lon="1.96162">
        <ele>140.1</ele>
        <time>2022-01-11T10:06:01Z</time>
      </trkpt>
      <trkpt lat="48.59667" lon="1.9614">
        <ele>138.1</ele>
        <time>2022-01-11T10:06:14Z</time>
      </trkpt>
      <trkpt lat="48.59678" lon="1.96116">
        <ele>136.4</ele>
        <time>2022-01-11T10:06:28Z</time>
      </trkpt>
      <trkpt lat="48.5969" lon="1.96095">
        <ele>134.9</ele>
        <time>2022-01-11T10:06:40Z</time>
      </trkpt>
      <trkpt lat="48.59701" lon="1.96073">
        <ele>132.8</ele>
        <time>2022-01-11T10:06:52Z</time>
      </trkpt>
      <trkpt lat="48.59712" lon="1.9605">
        <ele>130.7</ele>
        <time>2022-01-11T10:07:04Z</time>
      </trkpt>
      <trkpt lat="48.59722" lon="1.96026">
        <ele>129.9</ele>
        <time>2022-01-11T10:07:15Z</time>
      </trkpt>
      <trkpt lat="48.59729" lon="1.96">
        <ele>129.3</ele>
        <time>2022-01-11T10:07:27Z</time>
      </trkpt>
      <trkpt lat="48.59742" lon="1.95978">
        <ele>128.9</ele>
        <time>2022-01-11T10:07:40Z</time>
      </trkpt>
      <trkpt lat="48.59753" lon="1.95954">
        <ele>128.4</ele>
        <time>2022-01-11T10:07:53Z</time>
      </trkpt>
      <trkpt lat="48.59767" lon="1.95936">
        <ele>127.6</ele>
        <time>2022-01-11T10:08:06Z</time>
      </trkpt>
      <trkpt lat="48.59778" lon="1.95913">
        <ele>126.9</ele>
        <time>2022-01-11T10:08:18Z</time>
      </trkpt>
      <trkpt lat="48.59786" lon="1.95886">
        <ele>126.2</ele>
        <time>2022-01-11T10:08:29Z</time>
      </trkpt>
      <trkpt lat="48.59795" lon="1.95861">
        <ele>125</ele>
        <time>2022-01-11T10:08:40Z</time>
      </trkpt>
      <trkpt lat="48.59802" lon="1.95834">
        <ele>124</ele>
        <time>2022-01-11T10:08:52Z</time>
      </trkpt>
      <trkpt lat="48.59808" lon="1.95808">
        <ele>123.2</ele>
        <time>2022-01-11T10:09:03Z</time>
      </trkpt>
      <trkpt lat="48.59814" lon="1.9578">
        <ele>123</ele>
        <time>2022-01-11T10:09:16Z</time>
      </trkpt>
      <trkpt lat="48.59829" lon="1.95765">
        <ele>122.9</ele>
        <time>2022-01-11T10:09:27Z</time>
      </trkpt>
      <trkpt lat="48.59843" lon="1.95745">
        <ele>122.9</ele>
        <time>2022-01-11T10:09:40Z</time>
      </trkpt>
      <trkpt lat="48.59854" lon="1.95722">
        <ele>122.8</ele>
        <time>2022-01-11T10:09:53Z</time>
      </trkpt>
      <trkpt lat="48.59866" lon="1.95701">
        <ele>122.4</ele>
        <time>2022-01-11T10:10:09Z</time>
      </trkpt>
      <trkpt lat="48.5988" lon="1.95683">
        <ele>122.6</ele>
        <time>2022-01-11T10:12:18Z</time>
      </trkpt>
      <trkpt lat="48.59891" lon="1.9566">
        <ele>122.8</ele>
        <time>2022-01-11T10:12:33Z</time>
      </trkpt>
      <trkpt lat="48.59905" lon="1.95642">
        <ele>122.7</ele>
        <time>2022-01-11T10:12:49Z</time>
      </trkpt>
      <trkpt lat="48.59914" lon="1.95619">
        <ele>122.2</ele>
        <time>2022-01-11T10:13:07Z</time>
      </trkpt>
      <trkpt lat="48.59919" lon="1.95592">
        <ele>121.3</ele>
        <time>2022-01-11T10:13:20Z</time>
      </trkpt>
      <trkpt lat="48.59928" lon="1.95568">
        <ele>120.7</ele>
        <time>2022-01-11T10:13:32Z</time>
      </trkpt>
      <trkpt lat="48.59938" lon="1.95543">
        <ele>120.4</ele>
        <time>2022-01-11T10:13:45Z</time>
      </trkpt>
      <trkpt lat="48.5995" lon="1.95521">
        <ele>119.4</ele>
        <time>2022-01-11T10:13:57Z</time>
      </trkpt>
      <trkpt lat="48.59962" lon="1.95498">
        <ele>117.7</ele>
        <time>2022-01-11T10:14:10Z</time>
      </trkpt>
      <trkpt lat="48.59972" lon="1.95475">
        <ele>116.1</ele>
        <time>2022-01-11T10:14:22Z</time>
      </trkpt>
      <trkpt lat="48.59983" lon="1.95453">
        <ele>114.9</ele>
        <time>2022-01-11T10:14:35Z</time>
      </trkpt>
      <trkpt lat="48.59998" lon="1.95436">
        <ele>114.1</ele>
        <time>2022-01-11T10:14:49Z</time>
      </trkpt>
      <trkpt lat="48.60006" lon="1.95412">
        <ele>114</ele>
        <time>2022-01-11T10:15:02Z</time>
      </trkpt>
      <trkpt lat="48.60018" lon="1.95388">
        <ele>114</ele>
        <time>2022-01-11T10:15:14Z</time>
      </trkpt>
      <trkpt lat="48.60031" lon="1.95368">
        <ele>113.3</ele>
        <time>2022-01-11T10:15:26Z</time>
      </trkpt>
      <trkpt lat="48.6004" lon="1.95342">
        <ele>113</ele>
        <time>2022-01-11T10:15:38Z</time>
      </trkpt>
      <trkpt lat="48.60047" lon="1.95317">
        <ele>113</ele>
        <time>2022-01-11T10:15:54Z</time>
      </trkpt>
      <trkpt lat="48.60057" lon="1.95292">
        <ele>113</ele>
        <time>2022-01-11T10:16:18Z</time>
      </trkpt>
      <trkpt lat="48.60075" lon="1.95284">
        <ele>112.9</ele>
        <time>2022-01-11T10:16:38Z</time>
      </trkpt>
      <trkpt lat="48.60092" lon="1.95295">
        <ele>112.4</ele>
        <time>2022-01-11T10:17:16Z</time>
      </trkpt>
      <trkpt lat="48.60103" lon="1.95316">
        <ele>112.1</ele>
        <time>2022-01-11T10:17:32Z</time>
      </trkpt>
      <trkpt lat="48.60119" lon="1.95333">
        <ele>112</ele>
        <time>2022-01-11T10:17:46Z</time>
      </trkpt>
      <trkpt lat="48.60132" lon="1.95353">
        <ele>112.7</ele>
        <time>2022-01-11T10:18:00Z</time>
      </trkpt>
      <trkpt lat="48.60147" lon="1.95369">
        <ele>113.2</ele>
        <time>2022-01-11T10:18:12Z</time>
      </trkpt>
      <trkpt lat="48.6016" lon="1.95389">
        <ele>113.3</ele>
        <time>2022-01-11T10:18:26Z</time>
      </trkpt>
      <trkpt lat="48.60173" lon="1.95409">
        <ele>113.5</ele>
        <time>2022-01-11T10:18:39Z</time>
      </trkpt>
      <trkpt lat="48.60188" lon="1.95425">
        <ele>113.2</ele>
        <time>2022-01-11T10:18:51Z</time>
      </trkpt>
      <trkpt lat="48.60205" lon="1.95437">
        <ele>112.6</ele>
        <time>2022-01-11T10:19:02Z</time>
      </trkpt>
      <trkpt lat="48.60221" lon="1.95451">
        <ele>112</ele>
        <time>2022-01-11T10:19:13Z</time>
      </trkpt>
      <trkpt lat="48.60238" lon="1.95466">
        <ele>112</ele>
        <time>2022-01-11T10:19:25Z</time>
      </trkpt>
      <trkpt lat="48.60251" lon="1.95486">
        <ele>112</ele>
        <time>2022-01-11T10:19:37Z</time>
      </trkpt>
      <trkpt lat="48.60267" lon="1.95502">
        <ele>111.4</ele>
        <time>2022-01-11T10:19:51Z</time>
      </trkpt>
      <trkpt lat="48.6028" lon="1.95521">
        <ele>111</ele>
        <time>2022-01-11T10:20:06Z</time>
      </trkpt>
      <trkpt lat="48.60296" lon="1.95533">
        <ele>111</ele>
        <time>2022-01-11T10:20:17Z</time>
      </trkpt>
      <trkpt lat="48.60313" lon="1.95549">
        <ele>110.7</ele>
        <time>2022-01-11T10:20:28Z</time>
      </trkpt>
      <trkpt lat="48.60326" lon="1.95567">
        <ele>110.2</ele>
        <time>2022-01-11T10:20:40Z</time>
      </trkpt>
      <trkpt lat="48.60343" lon="1.95578">
        <ele>110</ele>
        <time>2022-01-11T10:20:53Z</time>
      </trkpt>
      <trkpt lat="48.6036" lon="1.95592">
        <ele>110</ele>
        <time>2022-01-11T10:21:03Z</time>
      </trkpt>
      <trkpt lat="48.60377" lon="1.9558">
        <ele>110</ele>
        <time>2022-01-11T10:21:17Z</time>
      </trkpt>
      <trkpt lat="48.60395" lon="1.95572">
        <ele>110</ele>
        <time>2022-01-11T10:21:32Z</time>
      </trkpt>
      <trkpt lat="48.60407" lon="1.95549">
        <ele>110</ele>
        <time>2022-01-11T10:21:46Z</time>
      </trkpt>
      <trkpt lat="48.60415" lon="1.95523">
        <ele>110</ele>
        <time>2022-01-11T10:21:59Z</time>
      </trkpt>
      <trkpt lat="48.60428" lon="1.95504">
        <ele>110</ele>
        <time>2022-01-11T10:22:11Z</time>
      </trkpt>
      <trkpt lat="48.6044" lon="1.95481">
        <ele>110</ele>
        <time>2022-01-11T10:22:23Z</time>
      </trkpt>
      <trkpt lat="48.60452" lon="1.95461">
        <ele>110</ele>
        <time>2022-01-11T10:22:34Z</time>
      </trkpt>
      <trkpt lat="48.60467" lon="1.95443">
        <ele>110</ele>
        <time>2022-01-11T10:22:47Z</time>
      </trkpt>
      <trkpt lat="48.60475" lon="1.95416">
        <ele>110</ele>
        <time>2022-01-11T10:23:00Z</time>
      </trkpt>
      <trkpt lat="48.60486" lon="1.95394">
        <ele>110</ele>
        <time>2022-01-11T10:23:12Z</time>
      </trkpt>
      <trkpt lat="48.60497" lon="1.95372">
        <ele>110.1</ele>
        <time>2022-01-11T10:23:23Z</time>
      </trkpt>
      <trkpt lat="48.60508" lon="1.95348">
        <ele>110</ele>
        <time>2022-01-11T10:23:35Z</time>
      </trkpt>
      <trkpt lat="48.6052" lon="1.95326">
        <ele>110.3</ele>
        <time>2022-01-11T10:23:47Z</time>
      </trkpt>
      <trkpt lat="48.60529" lon="1.95302">
        <ele>111</ele>
        <time>2022-01-11T10:23:59Z</time>
      </trkpt>
      <trkpt lat="48.60537" lon="1.95277">
        <ele>111</ele>
        <time>2022-01-11T10:24:10Z</time>
      </trkpt>
      <trkpt lat="48.6055" lon="1.95257">
        <ele>111</ele>
        <time>2022-01-11T10:24:23Z</time>
      </trkpt>
      <trkpt lat="48.60564" lon="1.95235">
        <ele>111</ele>
        <time>2022-01-11T10:24:35Z</time>
      </trkpt>
      <trkpt lat="48.60577" lon="1.95215">
        <ele>111</ele>
        <time>2022-01-11T10:24:48Z</time>
      </trkpt>
      <trkpt lat="48.60584" lon="1.9519">
        <ele>111</ele>
        <time>2022-01-11T10:25:01Z</time>
      </trkpt>
      <trkpt lat="48.60597" lon="1.95169">
        <ele>111</ele>
        <time>2022-01-11T10:25:16Z</time>
      </trkpt>
      <trkpt lat="48.6061" lon="1.95147">
        <ele>111</ele>
        <time>2022-01-11T10:25:29Z</time>
      </trkpt>
      <trkpt lat="48.60622" lon="1.95126">
        <ele>111</ele>
        <time>2022-01-11T10:25:42Z</time>
      </trkpt>
      <trkpt lat="48.60637" lon="1.95108">
        <ele>111</ele>
        <time>2022-01-11T10:25:57Z</time>
      </trkpt>
      <trkpt lat="48.60647" lon="1.95085">
        <ele>110.7</ele>
        <time>2022-01-11T10:26:08Z</time>
      </trkpt>
      <trkpt lat="48.6066" lon="1.95066">
        <ele>110.7</ele>
        <time>2022-01-11T10:26:20Z</time>
      </trkpt>
      <trkpt lat="48.6067" lon="1.95042">
        <ele>110.9</ele>
        <time>2022-01-11T10:26:33Z</time>
      </trkpt>
      <trkpt lat="48.60676" lon="1.95014">
        <ele>110.8</ele>
        <time>2022-01-11T10:26:43Z</time>
      </trkpt>
      <trkpt lat="48.60683" lon="1.94988">
        <ele>111</ele>
        <time>2022-01-11T10:26:57Z</time>
      </trkpt>
      <trkpt lat="48.60689" lon="1.94961">
        <ele>111</ele>
        <time>2022-01-11T10:27:55Z</time>
      </trkpt>
      <trkpt lat="48.60699" lon="1.94938">
        <ele>111.2</ele>
        <time>2022-01-11T10:28:24Z</time>
      </trkpt>
      <trkpt lat="48.60708" lon="1.94914">
        <ele>112</ele>
        <time>2022-01-11T10:28:45Z</time>
      </trkpt>
      <trkpt lat="48.60713" lon="1.94887">
        <ele>112.1</ele>
        <time>2022-01-11T10:29:01Z</time>
      </trkpt>
      <trkpt lat="48.60728" lon="1.94869">
        <ele>112.6</ele>
        <time>2022-01-11T10:29:18Z</time>
      </trkpt>
      <trkpt lat="48.60741" lon="1.94848">
        <ele>112.6</ele>
        <time>2022-01-11T10:29:33Z</time>
      </trkpt>
      <trkpt lat="48.60753" lon="1.94826">
        <ele>112.9</ele>
        <time>2022-01-11T10:29:50Z</time>
      </trkpt>
      <trkpt lat="48.60761" lon="1.94801">
        <ele>112.6</ele>
        <time>2022-01-11T10:30:06Z</time>
      </trkpt>
      <trkpt lat="48.60775" lon="1.94783">
        <ele>112.1</ele>
        <time>2022-01-11T10:30:20Z</time>
      </trkpt>
      <trkpt lat="48.60783" lon="1.94758">
        <ele>112</ele>
        <time>2022-01-11T10:30:36Z</time>
      </trkpt>
      <trkpt lat="48.60795" lon="1.94736">
        <ele>112.5</ele>
        <time>2022-01-11T10:30:50Z</time>
      </trkpt>
      <trkpt lat="48.60808" lon="1.94714">
        <ele>113.2</ele>
        <time>2022-01-11T10:31:05Z</time>
      </trkpt>
      <trkpt lat="48.60818" lon="1.94691">
        <ele>113.6</ele>
        <time>2022-01-11T10:31:18Z</time>
      </trkpt>
      <trkpt lat="48.60828" lon="1.94666">
        <ele>114</ele>
        <time>2022-01-11T10:31:30Z</time>
      </trkpt>
      <trkpt lat="48.60841" lon="1.94645">
        <ele>114.8</ele>
        <time>2022-01-11T10:31:48Z</time>
      </trkpt>
      <trkpt lat="48.60855" lon="1.94627">
        <ele>115</ele>
        <time>2022-01-11T10:32:03Z</time>
      </trkpt>
      <trkpt lat="48.60863" lon="1.94603">
        <ele>115.3</ele>
        <time>2022-01-11T10:32:17Z</time>
      </trkpt>
      <trkpt lat="48.60873" lon="1.94577">
        <ele>116</ele>
        <time>2022-01-11T10:32:30Z</time>
      </trkpt>
      <trkpt lat="48.60882" lon="1.94552">
        <ele>116</ele>
        <time>2022-01-11T10:32:43Z</time>
      </trkpt>
      <trkpt lat="48.60895" lon="1.94532">
        <ele>115.8</ele>
        <time>2022-01-11T10:32:56Z</time>
      </trkpt>
      <trkpt lat="48.60905" lon="1.94507">
        <ele>115.4</ele>
        <time>2022-01-11T10:33:09Z</time>
      </trkpt>
      <trkpt lat="48.60916" lon="1.94484">
        <ele>115.6</ele>
        <time>2022-01-11T10:33:22Z</time>
      </trkpt>
      <trkpt lat="48.60926" lon="1.94461">
        <ele>116.1</ele>
        <time>2022-01-11T10:33:34Z</time>
      </trkpt>
      <trkpt lat="48.60938" lon="1.94438">
        <ele>116.8</ele>
        <time>2022-01-11T10:33:48Z</time>
      </trkpt>
      <trkpt lat="48.60947" lon="1.94413">
        <ele>117</ele>
        <time>2022-01-11T10:34:23Z</time>
      </trkpt>
      <trkpt lat="48.60958" lon="1.94391">
        <ele>117</ele>
        <time>2022-01-11T10:34:39Z</time>
      </trkpt>
      <trkpt lat="48.6097" lon="1.94369">
        <ele>117</ele>
        <time>2022-01-11T10:34:52Z</time>
      </trkpt>
      <trkpt lat="48.60981" lon="1.94345">
        <ele>117</ele>
        <time>2022-01-11T10:35:07Z</time>
      </trkpt>
      <trkpt lat="48.60991" lon="1.94323">
        <ele>117.1</ele>
        <time>2022-01-11T10:35:22Z</time>
      </trkpt>
      <trkpt lat="48.61004" lon="1.94301">
        <ele>117</ele>
        <time>2022-01-11T10:35:34Z</time>
      </trkpt>
      <trkpt lat="48.61016" lon="1.94278">
        <ele>117</ele>
        <time>2022-01-11T10:35:47Z</time>
      </trkpt>
      <trkpt lat="48.61026" lon="1.94255">
        <ele>117.1</ele>
        <time>2022-01-11T10:35:59Z</time>
      </trkpt>
      <trkpt lat="48.61037" lon="1.94232">
        <ele>117</ele>
        <time>2022-01-11T10:36:12Z</time>
      </trkpt>
      <trkpt lat="48.61048" lon="1.9421">
        <ele>117.1</ele>
        <time>2022-01-11T10:36:24Z</time>
      </trkpt>
      <trkpt lat="48.61062" lon="1.94191">
        <ele>117.3</ele>
        <time>2022-01-11T10:36:39Z</time>
      </trkpt>
      <trkpt lat="48.61075" lon="1.94169">
        <ele>118</ele>
        <time>2022-01-11T10:36:54Z</time>
      </trkpt>
      <trkpt lat="48.61088" lon="1.94149">
        <ele>118.8</ele>
        <time>2022-01-11T10:37:09Z</time>
      </trkpt>
      <trkpt lat="48.61105" lon="1.94134">
        <ele>119.8</ele>
        <time>2022-01-11T10:37:23Z</time>
      </trkpt>
      <trkpt lat="48.61115" lon="1.94111">
        <ele>120.1</ele>
        <time>2022-01-11T10:37:37Z</time>
      </trkpt>
      <trkpt lat="48.6112" lon="1.94085">
        <ele>120.3</ele>
        <time>2022-01-11T10:37:55Z</time>
      </trkpt>
      <trkpt lat="48.61128" lon="1.9406">
        <ele>120.6</ele>
        <time>2022-01-11T10:38:07Z</time>
      </trkpt>
      <trkpt lat="48.61142" lon="1.94039">
        <ele>121.2</ele>
        <time>2022-01-11T10:38:23Z</time>
      </trkpt>
      <trkpt lat="48.61154" lon="1.94019">
        <ele>122.1</ele>
        <time>2022-01-11T10:38:36Z</time>
      </trkpt>
      <trkpt lat="48.61163" lon="1.93993">
        <ele>122.5</ele>
        <time>2022-01-11T10:38:50Z</time>
      </trkpt>
      <trkpt lat="48.61173" lon="1.93968">
        <ele>122.7</ele>
        <time>2022-01-11T10:39:03Z</time>
      </trkpt>
      <trkpt lat="48.61182" lon="1.93943">
        <ele>123.6</ele>
        <time>2022-01-11T10:39:15Z</time>
      </trkpt>
      <trkpt lat="48.6119" lon="1.93916">
        <ele>124.5</ele>
        <time>2022-01-11T10:39:29Z</time>
      </trkpt>
      <trkpt lat="48.612" lon="1.93892">
        <ele>125.8</ele>
        <time>2022-01-11T10:39:42Z</time>
      </trkpt>
      <trkpt lat="48.61204" lon="1.93865">
        <ele>126.4</ele>
        <time>2022-01-11T10:39:53Z</time>
      </trkpt>
      <trkpt lat="48.61215" lon="1.93843">
        <ele>127.6</ele>
        <time>2022-01-11T10:40:06Z</time>
      </trkpt>
      <trkpt lat="48.61222" lon="1.93817">
        <ele>128</ele>
        <time>2022-01-11T10:40:20Z</time>
      </trkpt>
      <trkpt lat="48.61229" lon="1.93791">
        <ele>128.5</ele>
        <time>2022-01-11T10:40:34Z</time>
      </trkpt>
      <trkpt lat="48.61227" lon="1.93764">
        <ele>128.3</ele>
        <time>2022-01-11T10:40:44Z</time>
      </trkpt>
      <trkpt lat="48.61233" lon="1.93736">
        <ele>128.4</ele>
        <time>2022-01-11T10:40:56Z</time>
      </trkpt>
      <trkpt lat="48.6124" lon="1.93711">
        <ele>128.6</ele>
        <time>2022-01-11T10:41:10Z</time>
      </trkpt>
      <trkpt lat="48.61251" lon="1.93688">
        <ele>129</ele>
        <time>2022-01-11T10:41:23Z</time>
      </trkpt>
      <trkpt lat="48.61253" lon="1.9366">
        <ele>129</ele>
        <time>2022-01-11T10:41:34Z</time>
      </trkpt>
      <trkpt lat="48.61257" lon="1.93632">
        <ele>129.4</ele>
        <time>2022-01-11T10:41:45Z</time>
      </trkpt>
      <trkpt lat="48.61267" lon="1.93607">
        <ele>130.1</ele>
        <time>2022-01-11T10:41:58Z</time>
      </trkpt>
      <trkpt lat="48.61269" lon="1.93579">
        <ele>131.1</ele>
        <time>2022-01-11T10:42:08Z</time>
      </trkpt>
      <trkpt lat="48.61274" lon="1.93551">
        <ele>132</ele>
        <time>2022-01-11T10:42:21Z</time>
      </trkpt>
      <trkpt lat="48.61278" lon="1.93523">
        <ele>133</ele>
        <time>2022-01-11T10:42:34Z</time>
      </trkpt>
      <trkpt lat="48.61278" lon="1.93494">
        <ele>133</ele>
        <time>2022-01-11T10:42:48Z</time>
      </trkpt>
      <trkpt lat="48.6129" lon="1.93473">
        <ele>133.4</ele>
        <time>2022-01-11T10:42:59Z</time>
      </trkpt>
      <trkpt lat="48.61296" lon="1.93447">
        <ele>133.7</ele>
        <time>2022-01-11T10:43:11Z</time>
      </trkpt>
      <trkpt lat="48.61305" lon="1.93422">
        <ele>134.8</ele>
        <time>2022-01-11T10:43:27Z</time>
      </trkpt>
      <trkpt lat="48.6131" lon="1.93395">
        <ele>136</ele>
        <time>2022-01-11T10:43:44Z</time>
      </trkpt>
      <trkpt lat="48.61315" lon="1.93367">
        <ele>137.1</ele>
        <time>2022-01-11T10:44:55Z</time>
      </trkpt>
      <trkpt lat="48.61325" lon="1.93344">
        <ele>138.8</ele>
        <time>2022-01-11T10:45:10Z</time>
      </trkpt>
      <trkpt lat="48.61335" lon="1.9332">
        <ele>140.7</ele>
        <time>2022-01-11T10:45:25Z</time>
      </trkpt>
      <trkpt lat="48.61347" lon="1.93299">
        <ele>142.8</ele>
        <time>2022-01-11T10:45:40Z</time>
      </trkpt>
      <trkpt lat="48.61351" lon="1.93271">
        <ele>144.2</ele>
        <time>2022-01-11T10:45:53Z</time>
      </trkpt>
      <trkpt lat="48.61354" lon="1.93243">
        <ele>145.6</ele>
        <time>2022-01-11T10:46:03Z</time>
      </trkpt>
      <trkpt lat="48.61363" lon="1.93218">
        <ele>148.3</ele>
        <time>2022-01-11T10:46:16Z</time>
      </trkpt>
      <trkpt lat="48.61377" lon="1.93198">
        <ele>150.5</ele>
        <time>2022-01-11T10:46:30Z</time>
      </trkpt>
      <trkpt lat="48.61387" lon="1.93175">
        <ele>153</ele>
        <time>2022-01-11T10:46:45Z</time>
      </trkpt>
      <trkpt lat="48.61399" lon="1.93155">
        <ele>155.7</ele>
        <time>2022-01-11T10:47:00Z</time>
      </trkpt>
      <trkpt lat="48.61415" lon="1.9314">
        <ele>158.7</ele>
        <time>2022-01-11T10:47:16Z</time>
      </trkpt>
      <trkpt lat="48.61429" lon="1.9312">
        <ele>161.2</ele>
        <time>2022-01-11T10:47:30Z</time>
      </trkpt>
      <trkpt lat="48.61444" lon="1.93103">
        <ele>164.9</ele>
        <time>2022-01-11T10:47:44Z</time>
      </trkpt>
      <trkpt lat="48.61459" lon="1.93085">
        <ele>167.5</ele>
        <time>2022-01-11T10:47:58Z</time>
      </trkpt>
      <trkpt lat="48.61473" lon="1.93069">
        <ele>170</ele>
        <time>2022-01-11T10:48:15Z</time>
      </trkpt>
      <trkpt lat="48.61489" lon="1.93054">
        <ele>170.6</ele>
        <time>2022-01-11T10:48:29Z</time>
      </trkpt>
      <trkpt lat="48.61506" lon="1.93043">
        <ele>170.7</ele>
        <time>2022-01-11T10:48:41Z</time>
      </trkpt>
      <trkpt lat="48.61522" lon="1.93027">
        <ele>170.8</ele>
        <time>2022-01-11T10:48:55Z</time>
      </trkpt>
      <trkpt lat="48.61538" lon="1.93013">
        <ele>171.4</ele>
        <time>2022-01-11T10:49:07Z</time>
      </trkpt>
      <trkpt lat="48.61555" lon="1.93001">
        <ele>172</ele>
        <time>2022-01-11T10:49:20Z</time>
      </trkpt>
      <trkpt lat="48.61573" lon="1.92997">
        <ele>172</ele>
        <time>2022-01-11T10:49:34Z</time>
      </trkpt>
      <trkpt lat="48.6159" lon="1.92984">
        <ele>172</ele>
        <time>2022-01-11T10:49:46Z</time>
      </trkpt>
      <trkpt lat="48.61606" lon="1.92971">
        <ele>172</ele>
        <time>2022-01-11T10:49:57Z</time>
      </trkpt>
      <trkpt lat="48.61624" lon="1.92961">
        <ele>172.4</ele>
        <time>2022-01-11T10:50:09Z</time>
      </trkpt>
      <trkpt lat="48.61642" lon="1.92953">
        <ele>172.7</ele>
        <time>2022-01-11T10:50:24Z</time>
      </trkpt>
      <trkpt lat="48.61659" lon="1.92943">
        <ele>173</ele>
        <time>2022-01-11T10:51:07Z</time>
      </trkpt>
    </trkseg>
  </trk>
</gpx>